Observation data for Tahoka on 10/23/2020      Previous  Date       Current Mesonet Observations  Soil Data  Daily Summary Page  Observations in Plain Language
KTAS 230500Z 18015KT 22/15 A2991 RMK A01 T02180153  RH  066%=      5-min Rain = 0
KTAS 230501Z 17013KT 22/15 A2991 RMK A01 T02180152  RH  066%=      5-min Rain = 0
KTAS 230502Z 18013KT 22/15 A2991 RMK A01 T02180152  RH  066%=      5-min Rain = 0
KTAS 230503Z 18012KT 22/15 A2991 RMK A01 T02170153  RH  067%=      5-min Rain = 0
KTAS 230504Z 18014KT 22/15 A2991 RMK A01 T02170152  RH  067%=      5-min Rain = 0
KTAS 230505Z 18011KT 22/15 A2991 RMK A01 T02160152  RH  067%=      5-min Rain = 0
KTAS 230506Z 17012KT 22/15 A2991 RMK A01 T02160152  RH  067%=      5-min Rain = 0
KTAS 230507Z 18012KT 22/15 A2991 RMK A01 T02150152  RH  067%=      5-min Rain = 0
KTAS 230508Z 18015KT 22/15 A2991 RMK A01 T02150153  RH  067%=      5-min Rain = 0
KTAS 230509Z 18014G20KT 22/15 A2991 RMK A01 T02160153  RH  067%=      5-min Rain = 0
KTAS 230510Z 18012KT 22/15 A2991 RMK A01 T02160152  RH  067%=      5-min Rain = 0
KTAS 230511Z 18012KT 22/15 A2991 RMK A01 T02150152  RH  067%=      5-min Rain = 0
KTAS 230512Z 18013KT 22/15 A2991 RMK A01 T02150152  RH  068%=      5-min Rain = 0
KTAS 230513Z 18014KT 22/15 A2991 RMK A01 T02150153  RH  068%=      5-min Rain = 0
KTAS 230514Z 18014KT 22/15 A2991 RMK A01 T02150153  RH  067%=      5-min Rain = 0
KTAS 230515Z 18013KT 22/15 A2991 RMK A01 T02150153  RH  067%=      5-min Rain = 0
KTAS 230516Z 18012KT 22/15 A2991 RMK A01 T02150152  RH  067%=      5-min Rain = 0
KTAS 230517Z 18012KT 21/15 A2991 RMK A01 T02140152  RH  068%=      5-min Rain = 0
KTAS 230518Z 18010KT 21/15 A2991 RMK A01 T02140152  RH  068%=      5-min Rain = 0
KTAS 230519Z 18013KT 21/15 A2991 RMK A01 T02130152  RH  068%=      5-min Rain = 0
KTAS 230520Z 18012KT 21/15 A2991 RMK A01 T02130152  RH  068%=      5-min Rain = 0
KTAS 230521Z 18011KT 21/15 A2991 RMK A01 T02130152  RH  068%=      5-min Rain = 0
KTAS 230522Z 17013KT 21/15 A2991 RMK A01 T02120152  RH  069%=      5-min Rain = 0
KTAS 230523Z 18010KT 21/15 A2991 RMK A01 T02120152  RH  068%=      5-min Rain = 0
KTAS 230524Z 18012KT 21/15 A2991 RMK A01 T02110152  RH  069%=      5-min Rain = 0
KTAS 230525Z 18011KT 21/15 A2991 RMK A01 T02110152  RH  069%=      5-min Rain = 0
KTAS 230526Z 18011KT 21/15 A2991 RMK A01 T02110152  RH  069%=      5-min Rain = 0
KTAS 230527Z 18011KT 21/15 A2991 RMK A01 T02110152  RH  069%=      5-min Rain = 0
KTAS 230528Z 18010KT 21/15 A2991 RMK A01 T02110152  RH  069%=      5-min Rain = 0
KTAS 230529Z 18011KT 21/15 A2991 RMK A01 T02110152  RH  069%=      5-min Rain = 0
KTAS 230530Z 18012KT 21/15 A2991 RMK A01 T02100152  RH  069%=      5-min Rain = 0
KTAS 230531Z 18011KT 21/15 A2991 RMK A01 T02100152  RH  069%=      5-min Rain = 0
KTAS 230532Z 18011KT 21/15 A2991 RMK A01 T02090152  RH  070%=      5-min Rain = 0
KTAS 230533Z 18010KT 21/15 A2991 RMK A01 T02090152  RH  070%=      5-min Rain = 0
KTAS 230534Z 18010KT 21/15 A2991 RMK A01 T02090151  RH  070%=      5-min Rain = 0
KTAS 230535Z 18010KT 21/15 A2991 RMK A01 T02080151  RH  070%=      5-min Rain = 0
KTAS 230536Z 18011KT 21/15 A2991 RMK A01 T02070151  RH  070%=      5-min Rain = 0
KTAS 230537Z 18014KT 21/15 A2991 RMK A01 T02080152  RH  070%=      5-min Rain = 0
KTAS 230538Z 18011KT 21/15 A2991 RMK A01 T02090153  RH  070%=      5-min Rain = 0
KTAS 230539Z 18010KT 21/15 A2991 RMK A01 T02090152  RH  070%=      5-min Rain = 0
KTAS 230540Z 18010KT 21/15 A2991 RMK A01 T02080152  RH  070%=      5-min Rain = 0
KTAS 230541Z 18010KT 21/15 A2991 RMK A01 T02070151  RH  070%=      5-min Rain = 0
KTAS 230542Z 18011KT 21/15 A2991 RMK A01 T02070151  RH  071%=      5-min Rain = 0
KTAS 230543Z 18010KT 21/15 A2991 RMK A01 T02070152  RH  071%=      5-min Rain = 0
KTAS 230544Z 17012KT 21/15 A2991 RMK A01 T02070152  RH  071%=      5-min Rain = 0
KTAS 230545Z 18011KT 21/15 A2991 RMK A01 T02070152  RH  071%=      5-min Rain = 0
KTAS 230546Z 18012KT 21/15 A2991 RMK A01 T02070152  RH  071%=      5-min Rain = 0
KTAS 230547Z 18011KT 21/15 A2991 RMK A01 T02070152  RH  071%=      5-min Rain = 0
KTAS 230548Z 18012KT 21/15 A299 RMK A01 T02070152  RH  071%=      5-min Rain = 0
KTAS 230549Z 18011KT 21/15 A299 RMK A01 T02070152  RH  071%=      5-min Rain = 0
KTAS 230550Z 18009KT 21/15 A299 RMK A01 T02070152  RH  070%=      5-min Rain = 0
KTAS 230551Z 18010KT 21/15 A299 RMK A01 T02060151  RH  071%=      5-min Rain = 0
KTAS 230552Z 18009KT 21/15 A299 RMK A01 T02050151  RH  071%=      5-min Rain = 0
KTAS 230553Z 18010KT 21/15 A299 RMK A01 T02050151  RH  071%=      5-min Rain = 0
KTAS 230554Z 19012KT 20/15 A299 RMK A01 T02040151  RH  072%=      5-min Rain = 0
KTAS 230555Z 18010KT 20/15 A299 RMK A01 T02040151  RH  072%=      5-min Rain = 0
KTAS 230556Z 18011KT 20/15 A299 RMK A01 T02040151  RH  072%=      5-min Rain = 0
KTAS 230557Z 18012KT 21/15 A299 RMK A01 T02050152  RH  072%=      5-min Rain = 0
KTAS 230558Z 18013KT 21/15 A299 RMK A01 T02050152  RH  071%=      5-min Rain = 0
KTAS 230559Z 18011KT 21/15 A299 RMK A01 T02050152  RH  071%=      5-min Rain = 0
KTAS 230600Z 19012G17KT 21/15 A299 RMK A01 T02050152  RH  071%=      5-min Rain = 0
KTAS 230601Z 18012KT 21/15 A299 RMK A01 T02050152  RH  071%=      5-min Rain = 0
KTAS 230602Z 18012KT 21/15 A299 RMK A01 T02050152  RH  072%=      5-min Rain = 0
KTAS 230603Z 18011KT 21/15 A299 RMK A01 T02050152  RH  072%=      5-min Rain = 0
KTAS 230604Z 18013KT 21/15 A299 RMK A01 T02050152  RH  072%=      5-min Rain = 0
KTAS 230605Z 18014KT 20/15 A299 RMK A01 T02040152  RH  072%=      5-min Rain = 0
KTAS 230606Z 18013KT 21/15 A299 RMK A01 T02050152  RH  072%=      5-min Rain = 0
KTAS 230607Z 18011KT 20/15 A299 RMK A01 T02040152  RH  072%=      5-min Rain = 0
KTAS 230608Z 18012KT 20/15 A299 RMK A01 T02040151  RH  072%=      5-min Rain = 0
KTAS 230609Z 17014KT 20/15 A299 RMK A01 T02040152  RH  072%=      5-min Rain = 0
KTAS 230610Z 18015KT 21/15 A299 RMK A01 T02050153  RH  072%=      5-min Rain = 0
KTAS 230611Z 18012KT 21/15 A299 RMK A01 T02050152  RH  071%=      5-min Rain = 0
KTAS 230612Z 18011KT 21/15 A299 RMK A01 T02050151  RH  072%=      5-min Rain = 0
KTAS 230613Z 18011KT 20/15 A299 RMK A01 T02040151  RH  072%=      5-min Rain = 0
KTAS 230614Z 18011KT 20/15 A299 RMK A01 T02030151  RH  072%=      5-min Rain = 0
KTAS 230615Z 18010KT 20/15 A299 RMK A01 T02020151  RH  072%=      5-min Rain = 0
KTAS 230616Z 18011KT 20/15 A299 RMK A01 T02010151  RH  073%=      5-min Rain = 0
KTAS 230617Z 18010KT 20/15 A299 RMK A01 T02010151  RH  073%=      5-min Rain = 0
KTAS 230618Z 18011KT 20/15 A299 RMK A01 T02000151  RH  073%=      5-min Rain = 0
KTAS 230619Z 18010KT 20/15 A299 RMK A01 T02000151  RH  073%=      5-min Rain = 0
KTAS 230620Z 18011KT 20/15 A299 RMK A01 T02000151  RH  073%=      5-min Rain = 0
KTAS 230621Z 18011KT 20/15 A299 RMK A01 T01990151  RH  073%=      5-min Rain = 0
KTAS 230622Z 18011KT 20/15 A299 RMK A01 T02000151  RH  073%=      5-min Rain = 0
KTAS 230623Z 18011G16KT 20/15 A299 RMK A01 T02000151  RH  074%=      5-min Rain = 0
KTAS 230624Z 18012KT 20/15 A299 RMK A01 T02000151  RH  073%=      5-min Rain = 0
KTAS 230625Z 18010KT 20/15 A299 RMK A01 T02000151  RH  073%=      5-min Rain = 0
KTAS 230626Z 18012KT 20/15 A299 RMK A01 T01990151  RH  074%=      5-min Rain = 0
KTAS 230627Z 18010KT 20/15 A299 RMK A01 T01990151  RH  074%=      5-min Rain = 0
KTAS 230628Z 18012KT 20/15 A299 RMK A01 T01990151  RH  074%=      5-min Rain = 0
KTAS 230629Z 18012KT 20/15 A299 RMK A01 T01990151  RH  074%=      5-min Rain = 0
KTAS 230630Z 18010KT 20/15 A299 RMK A01 T02000151  RH  073%=      5-min Rain = 0
KTAS 230631Z 18010KT 20/15 A299 RMK A01 T01990151  RH  074%=      5-min Rain = 0
KTAS 230632Z 18011KT 20/15 A299 RMK A01 T01980150  RH  074%=      5-min Rain = 0
KTAS 230633Z 18010KT 20/15 A299 RMK A01 T01980151  RH  074%=      5-min Rain = 0
KTAS 230634Z 18010KT 20/15 A299 RMK A01 T01980151  RH  074%=      5-min Rain = 0
KTAS 230635Z 18011KT 20/15 A299 RMK A01 T01970151  RH  074%=      5-min Rain = 0
KTAS 230636Z 17011KT 20/15 A299 RMK A01 T01980151  RH  074%=      5-min Rain = 0
KTAS 230637Z 18011KT 20/15 A299 RMK A01 T01980151  RH  074%=      5-min Rain = 0
KTAS 230638Z 17012KT 20/15 A299 RMK A01 T01980151  RH  074%=      5-min Rain = 0
KTAS 230639Z 17010KT 20/15 A299 RMK A01 T01970151  RH  075%=      5-min Rain = 0
KTAS 230640Z 17011KT 20/15 A299 RMK A01 T01970150  RH  075%=      5-min Rain = 0
KTAS 230641Z 17011KT 20/15 A299 RMK A01 T01960150  RH  075%=      5-min Rain = 0
KTAS 230642Z 18011KT 20/15 A299 RMK A01 T01960150  RH  075%=      5-min Rain = 0
KTAS 230643Z 18012KT 20/15 A299 RMK A01 T01960151  RH  075%=      5-min Rain = 0
KTAS 230644Z 17011KT 20/15 A299 RMK A01 T01960151  RH  075%=      5-min Rain = 0
KTAS 230645Z 17012KT 20/15 A299 RMK A01 T01960151  RH  075%=      5-min Rain = 0
KTAS 230646Z 17010KT 20/15 A299 RMK A01 T01960151  RH  075%=      5-min Rain = 0
KTAS 230647Z 18011KT 20/15 A299 RMK A01 T01960150  RH  075%=      5-min Rain = 0
KTAS 230648Z 17011KT 20/15 A299 RMK A01 T01960151  RH  075%=      5-min Rain = 0
KTAS 230649Z 17012KT 20/15 A299 RMK A01 T01960151  RH  075%=      5-min Rain = 0
KTAS 230650Z 17012KT 20/15 A299 RMK A01 T01960151  RH  075%=      5-min Rain = 0
KTAS 230651Z 17012KT 20/15 A299 RMK A01 T01960151  RH  075%=      5-min Rain = 0
KTAS 230652Z 17013KT 20/15 A299 RMK A01 T01960151  RH  075%=      5-min Rain = 0
KTAS 230653Z 18011KT 20/15 A299 RMK A01 T01960151  RH  075%=      5-min Rain = 0
KTAS 230654Z 18011KT 20/15 A299 RMK A01 T01960150  RH  075%=      5-min Rain = 0
KTAS 230655Z 18012KT 20/15 A299 RMK A01 T01950150  RH  075%=      5-min Rain = 0
KTAS 230656Z 18011KT 20/15 A299 RMK A01 T01950151  RH  075%=      5-min Rain = 0
KTAS 230657Z 18011KT 20/15 A299 RMK A01 T01950150  RH  075%=      5-min Rain = 0
KTAS 230658Z 18011KT 20/15 A299 RMK A01 T01950150  RH  075%=      5-min Rain = 0
KTAS 230659Z 18011KT 20/15 A299 RMK A01 T01950150  RH  076%=      5-min Rain = 0
KTAS 230700Z 18010KT 19/15 A299 RMK A01 T01940150  RH  076%=      5-min Rain = 0
KTAS 230701Z 18010KT 19/15 A299 RMK A01 T01940150  RH  076%=      5-min Rain = 0
KTAS 230702Z 18010KT 19/15 A299 RMK A01 T01930150  RH  076%=      5-min Rain = 0
KTAS 230703Z 17011KT 19/15 A299 RMK A01 T01930150  RH  076%=      5-min Rain = 0
KTAS 230704Z 17010KT 19/15 A299 RMK A01 T01930150  RH  076%=      5-min Rain = 0
KTAS 230705Z 18011KT 19/15 A299 RMK A01 T01920150  RH  076%=      5-min Rain = 0
KTAS 230706Z 18010KT 19/15 A299 RMK A01 T01920150  RH  076%=      5-min Rain = 0
KTAS 230707Z 17010KT 19/15 A299 RMK A01 T01920150  RH  076%=      5-min Rain = 0
KTAS 230708Z 18010KT 19/15 A299 RMK A01 T01920150  RH  077%=      5-min Rain = 0
KTAS 230709Z 17010KT 19/15 A299 RMK A01 T01910150  RH  077%=      5-min Rain = 0
KTAS 230710Z 18009KT 19/15 A299 RMK A01 T01910149  RH  077%=      5-min Rain = 0
KTAS 230711Z 17010KT 19/15 A299 RMK A01 T01900149  RH  077%=      5-min Rain = 0
KTAS 230712Z 18011KT 19/15 A299 RMK A01 T01910150  RH  077%=      5-min Rain = 0
KTAS 230713Z 17010KT 19/15 A299 RMK A01 T01910149  RH  077%=      5-min Rain = 0
KTAS 230714Z 18010KT 19/15 A299 RMK A01 T01900149  RH  077%=      5-min Rain = 0
KTAS 230715Z 17010KT 19/15 A299 RMK A01 T01900150  RH  077%=      5-min Rain = 0
KTAS 230716Z 18010KT 19/15 A2991 RMK A01 T01900149  RH  077%=      5-min Rain = 0
KTAS 230717Z 18011KT 19/15 A2991 RMK A01 T01900150  RH  077%=      5-min Rain = 0
KTAS 230718Z 17010KT 19/15 A2991 RMK A01 T01900150  RH  077%=      5-min Rain = 0
KTAS 230719Z 18010KT 19/15 A2991 RMK A01 T01900150  RH  077%=      5-min Rain = 0
KTAS 230720Z 18009KT 19/15 A2991 RMK A01 T01900149  RH  077%=      5-min Rain = 0
KTAS 230721Z 18009KT 19/15 A2991 RMK A01 T01890149  RH  077%=      5-min Rain = 0
KTAS 230722Z 18009KT 19/15 A2991 RMK A01 T01880149  RH  078%=      5-min Rain = 0
KTAS 230723Z 18008KT 19/15 A2991 RMK A01 T01880149  RH  078%=      5-min Rain = 0
KTAS 230724Z 18007KT 19/15 A2991 RMK A01 T01880148  RH  078%=      5-min Rain = 0
KTAS 230725Z 19007KT 19/15 A2991 RMK A01 T01870148  RH  078%=      5-min Rain = 0
KTAS 230726Z 19007KT 19/15 A2991 RMK A01 T01860148  RH  078%=      5-min Rain = 0
KTAS 230727Z 19006KT 19/15 A2992 RMK A01 T01850148  RH  079%=      5-min Rain = 0
KTAS 230728Z 20004KT 19/15 A2992 RMK A01 T01850148  RH  079%=      5-min Rain = 0
KTAS 230729Z 25003KT 18/15 A2993 RMK A01 T01840147  RH  079%=      5-min Rain = 0
KTAS 230730Z 32007G12KT 18/15 A2994 RMK A01 T01830146  RH  079%=      5-min Rain = 0
KTAS 230731Z 34014KT 18/14 A2994 RMK A01 T01800144  RH  079%=      5-min Rain = 0
KTAS 230732Z 34013KT 18/15 A2994 RMK A01 T01800146  RH  080%=      5-min Rain = 0
KTAS 230733Z 35011KT 18/15 A2994 RMK A01 T01800147  RH  081%=      5-min Rain = 0
KTAS 230734Z 34011KT 18/15 A2994 RMK A01 T01810147  RH  081%=      5-min Rain = 0
KTAS 230735Z 35012KT 18/15 A2994 RMK A01 T01830148  RH  080%=      5-min Rain = 0
KTAS 230736Z 35011KT 19/15 A2994 RMK A01 T01850149  RH  079%=      5-min Rain = 0
KTAS 230737Z 36011KT 19/15 A2995 RMK A01 T01860148  RH  079%=      5-min Rain = 0
KTAS 230738Z 35011KT 19/15 A2995 RMK A01 T01860148  RH  079%=      5-min Rain = 0
KTAS 230739Z 35009KT 19/15 A2995 RMK A01 T01860148  RH  079%=      5-min Rain = 0
KTAS 230740Z 34006KT 19/15 A2995 RMK A01 T01870149  RH  078%=      5-min Rain = 0
KTAS 230741Z 29003KT 19/15 A2994 RMK A01 T01880149  RH  078%=      5-min Rain = 0
KTAS 230742Z 22005KT 19/15 A2994 RMK A01 T01910153  RH  078%=      5-min Rain = 0
KTAS 230743Z 22005KT 20/15 A2994 RMK A01 T01960153  RH  076%=      5-min Rain = 0
KTAS 230744Z 20003KT 20/15 A2993 RMK A01 T01990152  RH  074%=      5-min Rain = 0
KTAS 230745Z 20007KT 20/15 A2993 RMK A01 T02000151  RH  073%=      5-min Rain = 0
KTAS 230746Z 20008KT 20/15 A2993 RMK A01 T01960147  RH  073%=      5-min Rain = 0
KTAS 230747Z 18006KT 19/15 A2993 RMK A01 T01920147  RH  075%=      5-min Rain = 0
KTAS 230748Z 19008KT 19/15 A2993 RMK A01 T01910148  RH  076%=      5-min Rain = 0
KTAS 230749Z 23009KT 19/15 A2993 RMK A01 T01910148  RH  076%=      5-min Rain = 0
KTAS 230750Z 25008KT 19/15 A2994 RMK A01 T01920151  RH  077%=      5-min Rain = 0
KTAS 230751Z 29009KT 19/15 A2995 RMK A01 T01940151  RH  076%=      5-min Rain = 0
KTAS 230752Z 31011KT 19/15 A2995 RMK A01 T01940149  RH  075%=      5-min Rain = 0
KTAS 230753Z 32013KT 19/15 A2996 RMK A01 T01910147  RH  076%=      5-min Rain = 0
KTAS 230754Z 33012KT 19/15 A2996 RMK A01 T01890149  RH  077%=      5-min Rain = 0
KTAS 230755Z 32011KT 19/15 A2996 RMK A01 T01900150  RH  078%=      5-min Rain = 0
KTAS 230756Z 33010G15KT 19/15 A2996 RMK A01 T01910150  RH  077%=      5-min Rain = 0
KTAS 230757Z 33011KT 19/15 A2996 RMK A01 T01910150  RH  077%=      5-min Rain = 0
KTAS 230758Z 33011KT 19/15 A2996 RMK A01 T01920150  RH  077%=      5-min Rain = 0
KTAS 230759Z 33009KT 19/15 A2996 RMK A01 T01920150  RH  077%=      5-min Rain = 0
KTAS 230800Z 33009KT 19/15 A2996 RMK A01 T01920150  RH  076%=      5-min Rain = 0
KTAS 230801Z 32008KT 19/15 A2996 RMK A01 T01920150  RH  076%=      5-min Rain = 0
KTAS 230802Z 33009KT 19/15 A2996 RMK A01 T01920150  RH  076%=      5-min Rain = 0
KTAS 230803Z 33010KT 19/15 A2997 RMK A01 T01920149  RH  076%=      5-min Rain = 0
KTAS 230804Z 36016KT 19/14 A2997 RMK A01 T01860136  RH  073%=      5-min Rain = 0
KTAS 230805Z 35016KT 17/10 A2997 RMK A01 T01690099  RH  063%=      5-min Rain = 0
KTAS 230806Z 00011KT 16/09 A2997 RMK A01 T01560089  RH  064%=      5-min Rain = 0
KTAS 230807Z 00013KT 15/09 A2997 RMK A01 T01500087  RH  066%=      5-min Rain = 0
KTAS 230808Z 00016KT 15/08 A2997 RMK A01 T01450084  RH  067%=      5-min Rain = 0
KTAS 230809Z 00015KT 14/08 A2998 RMK A01 T01410081  RH  067%=      5-min Rain = 0
KTAS 230810Z 35018G24KT 14/08 A2998 RMK A01 T01370078  RH  067%=      5-min Rain = 0
KTAS 230811Z 36018KT 13/07 A2998 RMK A01 T01310070  RH  066%=      5-min Rain = 0
KTAS 230812Z 00015G20KT 13/07 A2998 RMK A01 T01270067  RH  067%=      5-min Rain = 0
KTAS 230813Z 00016G21KT 12/07 A2998 RMK A01 T01240067  RH  068%=      5-min Rain = 0
KTAS 230814Z 00018KT 12/07 A2998 RMK A01 T01220066  RH  069%=      5-min Rain = 0
KTAS 230815Z 00018KT 12/07 A2999 RMK A01 T01210065  RH  069%=      5-min Rain = 0
KTAS 230816Z 00016KT 12/07 A2999 RMK A01 T01190065  RH  069%=      5-min Rain = 0
KTAS 230817Z 00014KT 12/06 A2999 RMK A01 T01180064  RH  069%=      5-min Rain = 0
KTAS 230818Z 01012KT 12/06 A2999 RMK A01 T01170064  RH  070%=      5-min Rain = 0
KTAS 230819Z 00015G21KT 12/06 A2999 RMK A01 T01160063  RH  070%=      5-min Rain = 0
KTAS 230820Z 36018KT 12/06 A2999 RMK A01 T01160063  RH  070%=      5-min Rain = 0
KTAS 230821Z 36021G27KT 12/06 A2999 RMK A01 T01150062  RH  070%=      5-min Rain = 0
KTAS 230822Z 01018KT 11/06 A2999 RMK A01 T01140061  RH  070%=      5-min Rain = 0
KTAS 230823Z 36017KT 11/06 A2999 RMK A01 T01130061  RH  070%=      5-min Rain = 0
KTAS 230824Z 36016KT 11/06 A2999 RMK A01 T01120060  RH  070%=      5-min Rain = 0
KTAS 230825Z 00020KT 11/06 A30 RMK A01 T01110060  RH  071%=      5-min Rain = 0
KTAS 230826Z 36015G20KT 11/06 A30 RMK A01 T01110060  RH  071%=      5-min Rain = 0
KTAS 230827Z 01017KT 11/06 A30 RMK A01 T01100060  RH  071%=      5-min Rain = 0
KTAS 230828Z 00018G23KT 11/06 A30 RMK A01 T01100059  RH  071%=      5-min Rain = 0
KTAS 230829Z 36020G25KT 11/06 A30 RMK A01 T01090059  RH  071%=      5-min Rain = 0
KTAS 230830Z 36019G25KT 11/06 A30 RMK A01 T01090059  RH  071%=      5-min Rain = 0
KTAS 230831Z 36015KT 11/06 A30 RMK A01 T01090059  RH  072%=      5-min Rain = 0
KTAS 230832Z 00017KT 11/06 A30 RMK A01 T01080059  RH  072%=      5-min Rain = 0
KTAS 230833Z 01016KT 11/06 A30 RMK A01 T01080059  RH  072%=      5-min Rain = 0
KTAS 230834Z 01017KT 11/06 A30 RMK A01 T01070059  RH  072%=      5-min Rain = 0
KTAS 230835Z 00018KT 11/06 A30 RMK A01 T01070059  RH  072%=      5-min Rain = 0
KTAS 230836Z 36018KT 11/06 A30 RMK A01 T01070059  RH  072%=      5-min Rain = 0
KTAS 230837Z 00014KT 11/06 A30 RMK A01 T01060058  RH  072%=      5-min Rain = 0
KTAS 230838Z 36018KT 11/06 A30 RMK A01 T01060058  RH  072%=      5-min Rain = 0
KTAS 230839Z 36015KT 11/06 A30 RMK A01 T01050058  RH  072%=      5-min Rain = 0
KTAS 230840Z 00014KT 11/06 A30 RMK A01 T01050058  RH  073%=      5-min Rain = 0
KTAS 230841Z 00015KT 10/06 A30 RMK A01 T01040058  RH  073%=      5-min Rain = 0
KTAS 230842Z 00019G26KT 10/06 A30 RMK A01 T01040058  RH  073%=      5-min Rain = 0
KTAS 230843Z 01017KT 10/06 A30 RMK A01 T01040058  RH  073%=      5-min Rain = 0
KTAS 230844Z 00019KT 10/06 A30 RMK A01 T01040058  RH  073%=      5-min Rain = 0
KTAS 230845Z 01019G24KT 10/06 A30 RMK A01 T01040058  RH  073%=      5-min Rain = 0
KTAS 230846Z 01017G22KT 10/06 A30 RMK A01 T01030057  RH  073%=      5-min Rain = 0
KTAS 230847Z 01016KT 10/06 A30 RMK A01 T01030057  RH  073%=      5-min Rain = 0
KTAS 230848Z 01016KT 10/06 A30 RMK A01 T01020057  RH  074%=      5-min Rain = 0
KTAS 230849Z 00016KT 10/06 A30 RMK A01 T01020057  RH  074%=      5-min Rain = 0
KTAS 230850Z 36016KT 10/06 A3001 RMK A01 T01010056  RH  074%=      5-min Rain = 0
KTAS 230851Z 00020KT 10/06 A3001 RMK A01 T01010056  RH  074%=      5-min Rain = 0
KTAS 230852Z 35019KT 10/06 A3001 RMK A01 T01000055  RH  074%=      5-min Rain = 0
KTAS 230853Z 00019KT 10/06 A3001 RMK A01 T01000055  RH  074%=      5-min Rain = 0
KTAS 230854Z 36018KT 10/06 A3001 RMK A01 T01000055  RH  074%=      5-min Rain = 0
KTAS 230855Z 36021KT 10/06 A3001 RMK A01 T00990055  RH  074%=      5-min Rain = 0
KTAS 230856Z 00018G23KT 10/05 A3001 RMK A01 T00990054  RH  074%=      5-min Rain = 0
KTAS 230857Z 01016KT 10/06 A3001 RMK A01 T00990055  RH  074%=      5-min Rain = 0
KTAS 230858Z 01021KT 10/05 A3001 RMK A01 T00980054  RH  074%=      5-min Rain = 0
KTAS 230859Z 01024KT 10/05 A3001 RMK A01 T00980054  RH  074%=      5-min Rain = 0
KTAS 230900Z 00024G29KT 10/05 A3001 RMK A01 T00980054  RH  074%=      5-min Rain = 0
KTAS 230901Z 00022KT 10/05 A3001 RMK A01 T00980054  RH  074%=      5-min Rain = 0
KTAS 230902Z 00021G26KT 10/05 A3001 RMK A01 T00970053  RH  074%=      5-min Rain = 0
KTAS 230903Z 01023KT 10/05 A3001 RMK A01 T00970053  RH  074%=      5-min Rain = 0
KTAS 230904Z 00021G26KT 10/05 A3001 RMK A01 T00960053  RH  074%=      5-min Rain = 0
KTAS 230905Z 01019G25KT 10/05 A3001 RMK A01 T00960053  RH  074%=      5-min Rain = 0
KTAS 230906Z 00022KT 10/05 A3001 RMK A01 T00960053  RH  075%=      5-min Rain = 0
KTAS 230907Z 01019KT 10/05 A3001 RMK A01 T00960053  RH  075%=      5-min Rain = 0
KTAS 230908Z 01022KT 10/05 A3001 RMK A01 T00950053  RH  075%=      5-min Rain = 0
KTAS 230909Z 01020G25KT 10/05 A3001 RMK A01 T00950053  RH  075%=      5-min Rain = 0
KTAS 230910Z 36021G27KT 10/05 A3001 RMK A01 T00950053  RH  075%=      5-min Rain = 0
KTAS 230911Z 00021G27KT 09/05 A3002 RMK A01 T00940052  RH  075%=      5-min Rain = 0
KTAS 230912Z 01020G25KT 09/05 A3001 RMK A01 T00940052  RH  075%=      5-min Rain = 0
KTAS 230913Z 00018KT 09/05 A3002 RMK A01 T00930052  RH  075%=      5-min Rain = 0
KTAS 230914Z 36018KT 09/05 A3002 RMK A01 T00930052  RH  076%=      5-min Rain = 0
KTAS 230915Z 00020KT 09/05 A3002 RMK A01 T00920052  RH  076%=      5-min Rain = 0
KTAS 230916Z 00018KT 09/05 A3002 RMK A01 T00920051  RH  076%=      5-min Rain = 0
KTAS 230917Z 36020KT 09/05 A3002 RMK A01 T00910051  RH  076%=      5-min Rain = 0
KTAS 230918Z 00016KT 09/05 A3002 RMK A01 T00900051  RH  076%=      5-min Rain = 0
KTAS 230919Z 36020KT 09/05 A3002 RMK A01 T00900051  RH  077%=      5-min Rain = 0
KTAS 230920Z 00019G24KT 09/05 A3002 RMK A01 T00900051  RH  077%=      5-min Rain = 0
KTAS 230921Z 36020G26KT 09/05 A3002 RMK A01 T00890051  RH  077%=      5-min Rain = 0
KTAS 230922Z 00021G26KT 09/05 A3003 RMK A01 T00890051  RH  077%=      5-min Rain = 0
KTAS 230923Z 00021KT 09/05 A3003 RMK A01 T00880050  RH  077%=      5-min Rain = 0
KTAS 230924Z 00022KT 09/05 A3003 RMK A01 T00880050  RH  077%=      5-min Rain = 0
KTAS 230925Z 00019KT 09/05 A3003 RMK A01 T00880050  RH  077%=      5-min Rain = 0
KTAS 230926Z 00017G23KT 09/05 A3003 RMK A01 T00880050  RH  077%=      5-min Rain = 0
KTAS 230927Z 01021KT 09/05 A3003 RMK A01 T00880050  RH  077%=      5-min Rain = 0
KTAS 230928Z 01018G23KT 09/05 A3003 RMK A01 T00870050  RH  077%=      5-min Rain = 0
KTAS 230929Z 36020KT 09/05 A3003 RMK A01 T00870050  RH  077%=      5-min Rain = 0
KTAS 230930Z 36020KT 09/05 A3003 RMK A01 T00880050  RH  077%=      5-min Rain = 0
KTAS 230931Z 00021KT 09/05 A3003 RMK A01 T00880050  RH  077%=      5-min Rain = 0
KTAS 230932Z 00021KT 09/05 A3003 RMK A01 T00880050  RH  077%=      5-min Rain = 0
KTAS 230933Z 00020KT 09/05 A3003 RMK A01 T00880050  RH  077%=      5-min Rain = 0
KTAS 230934Z 00018KT 09/05 A3003 RMK A01 T00880050  RH  077%=      5-min Rain = 0
KTAS 230935Z 01022G28KT 09/05 A3003 RMK A01 T00880049  RH  077%=      5-min Rain = 0
KTAS 230936Z 01021KT 09/05 A3003 RMK A01 T00880049  RH  076%=      5-min Rain = 0
KTAS 230937Z 01022G28KT 09/05 A3003 RMK A01 T00870048  RH  076%=      5-min Rain = 0
KTAS 230938Z 01023KT 09/05 A3003 RMK A01 T00870047  RH  076%=      5-min Rain = 0
KTAS 230939Z 01023KT 09/05 A3004 RMK A01 T00870047  RH  076%=      5-min Rain = 0
KTAS 230940Z 01024G29KT 09/05 A3004 RMK A01 T00870047  RH  076%=      5-min Rain = 0
KTAS 230941Z 00025G30KT 09/05 A3004 RMK A01 T00870046  RH  076%=      5-min Rain = 0
KTAS 230942Z 01024G30KT 09/05 A3004 RMK A01 T00870046  RH  075%=      5-min Rain = 0
KTAS 230943Z 01021KT 09/05 A3004 RMK A01 T00870045  RH  075%=      5-min Rain = 0
KTAS 230944Z 00029KT 09/05 A3004 RMK A01 T00870045  RH  075%=      5-min Rain = 0
KTAS 230945Z 01024KT 09/04 A3004 RMK A01 T00870044  RH  074%=      5-min Rain = 0
KTAS 230946Z 00025G31KT 09/04 A3004 RMK A01 T00870044  RH  074%=      5-min Rain = 0
KTAS 230947Z 01024KT 09/04 A3004 RMK A01 T00860043  RH  074%=      5-min Rain = 0
KTAS 230948Z 01025KT 09/04 A3004 RMK A01 T00860043  RH  074%=      5-min Rain = 0
KTAS 230949Z 01021KT 09/04 A3004 RMK A01 T00870043  RH  074%=      5-min Rain = 0
KTAS 230950Z 01019KT 09/04 A3004 RMK A01 T00870043  RH  074%=      5-min Rain = 0
KTAS 230951Z 00018G25KT 09/04 A3004 RMK A01 T00880044  RH  074%=      5-min Rain = 0
KTAS 230952Z 00020G26KT 09/04 A3004 RMK A01 T00880043  RH  074%=      5-min Rain = 0
KTAS 230953Z 00022G28KT 09/04 A3004 RMK A01 T00880043  RH  074%=      5-min Rain = 0
KTAS 230954Z 01020KT 09/04 A3004 RMK A01 T00870042  RH  073%=      5-min Rain = 0
KTAS 230955Z 01020KT 09/04 A3004 RMK A01 T00870042  RH  073%=      5-min Rain = 0
KTAS 230956Z 01023KT 09/04 A3004 RMK A01 T00870042  RH  073%=      5-min Rain = 0
KTAS 230957Z 01022KT 09/04 A3004 RMK A01 T00870042  RH  073%=      5-min Rain = 0
KTAS 230958Z 01021G26KT 09/04 A3004 RMK A01 T00870042  RH  073%=      5-min Rain = 0
KTAS 230959Z 01020KT 09/04 A3004 RMK A01 T00870042  RH  073%=      5-min Rain = 0
KTAS 231000Z 00016G21KT 09/04 A3005 RMK A01 T00880042  RH  073%=      5-min Rain = 0
KTAS 231001Z 01017KT 09/04 A3005 RMK A01 T00880043  RH  073%=      5-min Rain = 0
KTAS 231002Z 01022G27KT 09/04 A3004 RMK A01 T00880042  RH  073%=      5-min Rain = 0
KTAS 231003Z 01017G22KT 09/04 A3004 RMK A01 T00880041  RH  073%=      5-min Rain = 0
KTAS 231004Z 01020KT 09/04 A3005 RMK A01 T00880042  RH  073%=      5-min Rain = 0
KTAS 231005Z 01019G26KT 09/04 A3005 RMK A01 T00880042  RH  073%=      5-min Rain = 0
KTAS 231006Z 01020G26KT 09/04 A3005 RMK A01 T00880042  RH  073%=      5-min Rain = 0
KTAS 231007Z 01020G25KT 09/04 A3005 RMK A01 T00870041  RH  073%=      5-min Rain = 0
KTAS 231008Z 01020KT 09/04 A3005 RMK A01 T00870041  RH  073%=      5-min Rain = 0
KTAS 231009Z 01024KT 09/04 A3005 RMK A01 T00870041  RH  073%=      5-min Rain = 0
KTAS 231010Z 01022G28KT 09/04 A3005 RMK A01 T00860040  RH  073%=      5-min Rain = 0
KTAS 231011Z 01019G25KT 09/04 A3005 RMK A01 T00860040  RH  073%=      5-min Rain = 0
KTAS 231012Z 01018G24KT 09/04 A3005 RMK A01 T00860040  RH  073%=      5-min Rain = 0
KTAS 231013Z 01021G26KT 09/04 A3005 RMK A01 T00860040  RH  072%=      5-min Rain = 0
KTAS 231014Z 00023KT 09/04 A3005 RMK A01 T00860040  RH  072%=      5-min Rain = 0
KTAS 231015Z 01020G27KT 09/04 A3005 RMK A01 T00860039  RH  072%=      5-min Rain = 0
KTAS 231016Z 01022KT 09/04 A3005 RMK A01 T00860039  RH  072%=      5-min Rain = 0
KTAS 231017Z 01023G28KT 09/04 A3005 RMK A01 T00860039  RH  072%=      5-min Rain = 0
KTAS 231018Z 01022KT 09/04 A3005 RMK A01 T00860039  RH  072%=      5-min Rain = 0
KTAS 231019Z 01019KT 09/04 A3005 RMK A01 T00860039  RH  072%=      5-min Rain = 0
KTAS 231020Z 01020KT 09/04 A3005 RMK A01 T00860039  RH  072%=      5-min Rain = 0
KTAS 231021Z 01023KT 09/04 A3005 RMK A01 T00860039  RH  072%=      5-min Rain = 0
KTAS 231022Z 01023KT 09/04 A3005 RMK A01 T00860039  RH  072%=      5-min Rain = 0
KTAS 231023Z 01023G28KT 09/04 A3005 RMK A01 T00860039  RH  072%=      5-min Rain = 0
KTAS 231024Z 01018G23KT 09/04 A3005 RMK A01 T00850038  RH  072%=      5-min Rain = 0
KTAS 231025Z 01018G23KT 09/04 A3005 RMK A01 T00850038  RH  072%=      5-min Rain = 0
KTAS 231026Z 01020KT 09/04 A3005 RMK A01 T00850038  RH  072%=      5-min Rain = 0
KTAS 231027Z 01017G24KT 09/04 A3006 RMK A01 T00850038  RH  072%=      5-min Rain = 0
KTAS 231028Z 01022KT 09/04 A3006 RMK A01 T00850038  RH  072%=      5-min Rain = 0
KTAS 231029Z 01019G24KT 09/04 A3006 RMK A01 T00850038  RH  072%=      5-min Rain = 0
KTAS 231030Z 01019KT 09/04 A3006 RMK A01 T00850038  RH  072%=      5-min Rain = 0
KTAS 231031Z 01020KT 09/04 A3006 RMK A01 T00850038  RH  072%=      5-min Rain = 0
KTAS 231032Z 00019KT 09/04 A3006 RMK A01 T00850038  RH  072%=      5-min Rain = 0
KTAS 231033Z 01022KT 09/04 A3006 RMK A01 T00850038  RH  072%=      5-min Rain = 0
KTAS 231034Z 01022KT 09/04 A3006 RMK A01 T00850038  RH  072%=      5-min Rain = 0
KTAS 231035Z 02022G27KT 09/04 A3006 RMK A01 T00850038  RH  072%=      5-min Rain = 0
KTAS 231036Z 01016KT 09/04 A3006 RMK A01 T00850038  RH  072%=      5-min Rain = 0
KTAS 231037Z 01017KT 09/04 A3006 RMK A01 T00850038  RH  072%=      5-min Rain = 0
KTAS 231038Z 01019G24KT 09/04 A3006 RMK A01 T00850038  RH  072%=      5-min Rain = 0
KTAS 231039Z 01023KT 09/04 A3006 RMK A01 T00850038  RH  072%=      5-min Rain = 0
KTAS 231040Z 01021KT 09/04 A3006 RMK A01 T00850038  RH  072%=      5-min Rain = 0
KTAS 231041Z 01022G27KT 09/04 A3006 RMK A01 T00850038  RH  072%=      5-min Rain = 0
KTAS 231042Z 01023G28KT 08/04 A3006 RMK A01 T00840037  RH  072%=      5-min Rain = 0
KTAS 231043Z 01021KT 09/04 A3006 RMK A01 T00850038  RH  072%=      5-min Rain = 0
KTAS 231044Z 01018G23KT 08/04 A3007 RMK A01 T00840038  RH  072%=      5-min Rain = 0
KTAS 231045Z 01018G23KT 09/04 A3007 RMK A01 T00850038  RH  072%=      5-min Rain = 0
KTAS 231046Z 01022KT 09/04 A3007 RMK A01 T00850037  RH  072%=      5-min Rain = 0
KTAS 231047Z 01016KT 08/04 A3007 RMK A01 T00840037  RH  072%=      5-min Rain = 0
KTAS 231048Z 01014KT 08/04 A3007 RMK A01 T00840037  RH  072%=      5-min Rain = 0
KTAS 231049Z 01020KT 09/04 A3007 RMK A01 T00850037  RH  072%=      5-min Rain = 0
KTAS 231050Z 02019G25KT 08/04 A3007 RMK A01 T00840037  RH  072%=      5-min Rain = 0
KTAS 231051Z 01022G28KT 08/04 A3007 RMK A01 T00840037  RH  072%=      5-min Rain = 0
KTAS 231052Z 01020KT 08/04 A3007 RMK A01 T00840037  RH  072%=      5-min Rain = 0
KTAS 231053Z 02020KT 08/04 A3007 RMK A01 T00840037  RH  072%=      5-min Rain = 0
KTAS 231054Z 02018KT 08/04 A3008 RMK A01 T00840037  RH  072%=      5-min Rain = 0
KTAS 231055Z 02019G25KT 08/04 A3008 RMK A01 T00840037  RH  072%=      5-min Rain = 0
KTAS 231056Z 02022G28KT 08/04 A3008 RMK A01 T00840036  RH  072%=      5-min Rain = 0
KTAS 231057Z 02025KT 08/04 A3008 RMK A01 T00830036  RH  072%=      5-min Rain = 0
KTAS 231058Z 02024KT 08/04 A3007 RMK A01 T00820035  RH  072%=      5-min Rain = 0
KTAS 231059Z 02023G28KT 08/04 A3008 RMK A01 T00810035  RH  073%=      5-min Rain = 0
KTAS 231100Z 02023KT 08/04 A3008 RMK A01 T00810035  RH  073%=      5-min Rain = 0
KTAS 231101Z 02019KT 08/04 A3008 RMK A01 T00810035  RH  073%=      5-min Rain = 0
KTAS 231102Z 02021G28KT 08/04 A3008 RMK A01 T00810035  RH  073%=      5-min Rain = 0
KTAS 231103Z 02020G27KT 08/04 A3008 RMK A01 T00810035  RH  073%=      5-min Rain = 0
KTAS 231104Z 02019G25KT 08/04 A3008 RMK A01 T00810035  RH  073%=      5-min Rain = 0
KTAS 231105Z 02022KT 08/04 A3008 RMK A01 T00810035  RH  073%=      5-min Rain = 0
KTAS 231106Z 01022G28KT 08/03 A3008 RMK A01 T00810034  RH  072%=      5-min Rain = 0
KTAS 231107Z 01022G27KT 08/03 A3008 RMK A01 T00810034  RH  072%=      5-min Rain = 0
KTAS 231108Z 01022G27KT 08/03 A3008 RMK A01 T00810034  RH  072%=      5-min Rain = 0
KTAS 231109Z 01023KT 08/03 A3008 RMK A01 T00810034  RH  072%=      5-min Rain = 0
KTAS 231110Z 02020KT 08/03 A3008 RMK A01 T00800034  RH  072%=      5-min Rain = 0
KTAS 231111Z 02022KT 08/03 A3008 RMK A01 T00800033  RH  072%=      5-min Rain = 0
KTAS 231112Z 02021KT 08/03 A3008 RMK A01 T00800033  RH  072%=      5-min Rain = 0
KTAS 231113Z 02021KT 08/03 A3008 RMK A01 T00800033  RH  072%=      5-min Rain = 0
KTAS 231114Z 02022KT 08/03 A3008 RMK A01 T00800033  RH  072%=      5-min Rain = 0
KTAS 231115Z 02021KT 08/03 A3008 RMK A01 T00800032  RH  072%=      5-min Rain = 0
KTAS 231116Z 02022KT 08/03 A3008 RMK A01 T00800033  RH  072%=      5-min Rain = 0
KTAS 231117Z 02021KT 08/03 A3008 RMK A01 T00790032  RH  072%=      5-min Rain = 0
KTAS 231118Z 02019KT 08/03 A3009 RMK A01 T00790032  RH  072%=      5-min Rain = 0
KTAS 231119Z 01021KT 08/03 A3009 RMK A01 T00790032  RH  072%=      5-min Rain = 0
KTAS 231120Z 02020KT 08/03 A3009 RMK A01 T00790032  RH  072%=      5-min Rain = 0
KTAS 231121Z 02021KT 08/03 A3009 RMK A01 T00790032  RH  072%=      5-min Rain = 0
KTAS 231122Z 01022KT 08/03 A3009 RMK A01 T00790033  RH  072%=      5-min Rain = 0
KTAS 231123Z 02022KT 08/03 A3009 RMK A01 T00790033  RH  072%=      5-min Rain = 0
KTAS 231124Z 02022KT 08/03 A3009 RMK A01 T00790033  RH  072%=      5-min Rain = 0
KTAS 231125Z 02022KT 08/03 A3009 RMK A01 T00790032  RH  072%=      5-min Rain = 0
KTAS 231126Z 02020KT 08/03 A3009 RMK A01 T00790032  RH  072%=      5-min Rain = 0
KTAS 231127Z 02020KT 08/03 A3009 RMK A01 T00780032  RH  072%=      5-min Rain = 0
KTAS 231128Z 02020KT 08/03 A3009 RMK A01 T00790032  RH  072%=      5-min Rain = 0
KTAS 231129Z 01025KT 08/03 A3009 RMK A01 T00790032  RH  072%=      5-min Rain = 0
KTAS 231130Z 02023KT 08/03 A3009 RMK A01 T00780032  RH  073%=      5-min Rain = 0
KTAS 231131Z 02022G28KT 08/03 A3009 RMK A01 T00770032  RH  073%=      5-min Rain = 0
KTAS 231132Z 02022G29KT 08/03 A3009 RMK A01 T00770032  RH  073%=      5-min Rain = 0
KTAS 231133Z 02026G33KT 08/03 A301 RMK A01 T00760032  RH  073%=      5-min Rain = 0
KTAS 231134Z 01026G32KT 08/03 A301 RMK A01 T00750031  RH  074%=      5-min Rain = 0
KTAS 231135Z 01020G26KT 08/03 A301 RMK A01 T00750032  RH  074%=      5-min Rain = 0
KTAS 231136Z 01017KT 08/03 A301 RMK A01 T00750031  RH  074%=      5-min Rain = 0
KTAS 231137Z 01021G28KT 08/03 A301 RMK A01 T00750031  RH  074%=      5-min Rain = 0
KTAS 231138Z 01023KT 07/03 A301 RMK A01 T00740031  RH  074%=      5-min Rain = 0
KTAS 231139Z 01022G27KT 07/03 A301 RMK A01 T00740031  RH  074%=      5-min Rain = 0
KTAS 231140Z 01020G26KT 07/03 A301 RMK A01 T00740031  RH  074%=      5-min Rain = 0
KTAS 231141Z 01020KT 07/03 A301 RMK A01 T00740031  RH  074%=      5-min Rain = 0
KTAS 231142Z 01020KT 07/03 A301 RMK A01 T00740031  RH  074%=      5-min Rain = 0
KTAS 231143Z 01022KT 07/03 A301 RMK A01 T00740031  RH  074%=      5-min Rain = 0
KTAS 231144Z 01021KT 07/03 A3011 RMK A01 T00730031  RH  074%=      5-min Rain = 0
KTAS 231145Z 01022KT 07/03 A3011 RMK A01 T00730031  RH  074%=      5-min Rain = 0
KTAS 231146Z 02020KT 07/03 A3011 RMK A01 T00730030  RH  075%=      5-min Rain = 0
KTAS 231147Z 01020KT 07/03 A3011 RMK A01 T00730031  RH  074%=      5-min Rain = 0
KTAS 231148Z 01017KT 07/03 A3011 RMK A01 T00730031  RH  075%=      5-min Rain = 0
KTAS 231149Z 02020KT 07/03 A3011 RMK A01 T00730031  RH  074%=      5-min Rain = 0
KTAS 231150Z 02020KT 07/03 A3011 RMK A01 T00730031  RH  074%=      5-min Rain = 0
KTAS 231151Z 02019G24KT 07/03 A3011 RMK A01 T00730031  RH  074%=      5-min Rain = 0
KTAS 231152Z 01019G24KT 07/03 A3011 RMK A01 T00730030  RH  074%=      5-min Rain = 0
KTAS 231153Z 01017KT 07/03 A3011 RMK A01 T00730030  RH  074%=      5-min Rain = 0
KTAS 231154Z 01015KT 07/03 A3011 RMK A01 T00740031  RH  074%=      5-min Rain = 0
KTAS 231155Z 01017G23KT 07/03 A3012 RMK A01 T00740030  RH  074%=      5-min Rain = 0
KTAS 231156Z 01018KT 07/03 A3012 RMK A01 T00740030  RH  074%=      5-min Rain = 0
KTAS 231157Z 02017G22KT 07/03 A3012 RMK A01 T00730030  RH  074%=      5-min Rain = 0
KTAS 231158Z 02015KT 07/03 A3012 RMK A01 T00730029  RH  074%=      5-min Rain = 0
KTAS 231159Z 02015KT 07/03 A3012 RMK A01 T00730029  RH  073%=      5-min Rain = 0
KTAS 231200Z 02018KT 07/03 A3012 RMK A01 T00730028  RH  073%=      5-min Rain = 0
KTAS 231201Z 01019G24KT 07/03 A3012 RMK A01 T00730028  RH  073%=      5-min Rain = 0
KTAS 231202Z 01019KT 07/03 A3012 RMK A01 T00730028  RH  073%=      5-min Rain = 0
KTAS 231203Z 01020G26KT 07/03 A3012 RMK A01 T00720026  RH  072%=      5-min Rain = 0
KTAS 231204Z 02022KT 07/03 A3012 RMK A01 T00720025  RH  072%=      5-min Rain = 0
KTAS 231205Z 01022G27KT 07/02 A3012 RMK A01 T00710024  RH  072%=      5-min Rain = 0
KTAS 231206Z 01023G28KT 07/02 A3012 RMK A01 T00710024  RH  072%=      5-min Rain = 0
KTAS 231207Z 01021G26KT 07/02 A3012 RMK A01 T00710023  RH  072%=      5-min Rain = 0
KTAS 231208Z 01022G27KT 07/02 A3012 RMK A01 T00710023  RH  072%=      5-min Rain = 0
KTAS 231209Z 01022G27KT 07/02 A3013 RMK A01 T00700023  RH  072%=      5-min Rain = 0
KTAS 231210Z 02021G26KT 07/02 A3013 RMK A01 T00700022  RH  072%=      5-min Rain = 0
KTAS 231211Z 02021G27KT 07/02 A3012 RMK A01 T00700022  RH  072%=      5-min Rain = 0
KTAS 231212Z 02024G29KT 07/02 A3013 RMK A01 T00700022  RH  071%=      5-min Rain = 0
KTAS 231213Z 01025KT 07/02 A3013 RMK A01 T00700022  RH  071%=      5-min Rain = 0
KTAS 231214Z 02021G27KT 07/02 A3013 RMK A01 T00700022  RH  071%=      5-min Rain = 0
KTAS 231215Z 01020G26KT 07/02 A3013 RMK A01 T00700022  RH  071%=      5-min Rain = 0
KTAS 231216Z 01020KT 07/02 A3013 RMK A01 T00700022  RH  071%=      5-min Rain = 0
KTAS 231217Z 01022G27KT 07/02 A3013 RMK A01 T00700022  RH  071%=      5-min Rain = 0
KTAS 231218Z 02019KT 07/02 A3013 RMK A01 T00700022  RH  071%=      5-min Rain = 0
KTAS 231219Z 02020KT 07/02 A3013 RMK A01 T00700022  RH  071%=      5-min Rain = 0
KTAS 231220Z 01018KT 07/02 A3013 RMK A01 T00710022  RH  071%=      5-min Rain = 0
KTAS 231221Z 02017KT 07/02 A3013 RMK A01 T00710022  RH  071%=      5-min Rain = 0
KTAS 231222Z 02018KT 07/02 A3013 RMK A01 T00710021  RH  071%=      5-min Rain = 0
KTAS 231223Z 02020G25KT 07/02 A3013 RMK A01 T00710021  RH  071%=      5-min Rain = 0
KTAS 231224Z 03022KT 07/02 A3013 RMK A01 T00710021  RH  071%=      5-min Rain = 0
KTAS 231225Z 02017G22KT 07/02 A3013 RMK A01 T00700021  RH  071%=      5-min Rain = 0
KTAS 231226Z 02021G26KT 07/02 A3013 RMK A01 T00710022  RH  071%=      5-min Rain = 0
KTAS 231227Z 02022KT 07/02 A3013 RMK A01 T00710021  RH  071%=      5-min Rain = 0
KTAS 231228Z 02021KT 07/02 A3013 RMK A01 T00710022  RH  071%=      5-min Rain = 0
KTAS 231229Z 02018G24KT 07/02 A3013 RMK A01 T00710022  RH  071%=      5-min Rain = 0
KTAS 231230Z 02020G27KT 07/02 A3013 RMK A01 T00710022  RH  071%=      5-min Rain = 0
KTAS 231231Z 02023G28KT 07/02 A3013 RMK A01 T00700021  RH  071%=      5-min Rain = 0
KTAS 231232Z 02022KT 07/02 A3013 RMK A01 T00700021  RH  071%=      5-min Rain = 0
KTAS 231233Z 02018G26KT 07/02 A3013 RMK A01 T00700021  RH  071%=      5-min Rain = 0
KTAS 231234Z 02023KT 07/02 A3013 RMK A01 T00700021  RH  071%=      5-min Rain = 0
KTAS 231235Z 02018G24KT 07/02 A3014 RMK A01 T00700021  RH  071%=      5-min Rain = 0
KTAS 231236Z 02020KT 07/02 A3014 RMK A01 T00700021  RH  071%=      5-min Rain = 0
KTAS 231237Z 02021KT 07/02 A3014 RMK A01 T00700021  RH  071%=      5-min Rain = 0
KTAS 231238Z 02020KT 07/02 A3013 RMK A01 T00700021  RH  071%=      5-min Rain = 0
KTAS 231239Z 02018KT 07/02 A3014 RMK A01 T00690021  RH  071%=      5-min Rain = 0
KTAS 231240Z 02018KT 07/02 A3014 RMK A01 T00690020  RH  071%=      5-min Rain = 0
KTAS 231241Z 02019G24KT 07/02 A3013 RMK A01 T00690021  RH  071%=      5-min Rain = 0
KTAS 231242Z 02019KT 07/02 A3014 RMK A01 T00690021  RH  071%=      5-min Rain = 0
KTAS 231243Z 01017KT 07/02 A3014 RMK A01 T00700021  RH  071%=      5-min Rain = 0
KTAS 231244Z 01022KT 07/02 A3013 RMK A01 T00700021  RH  071%=      5-min Rain = 0
KTAS 231245Z 02020G25KT 07/02 A3014 RMK A01 T00700021  RH  071%=      5-min Rain = 0
KTAS 231246Z 02018KT 07/02 A3014 RMK A01 T00690021  RH  071%=      5-min Rain = 0
KTAS 231247Z 02018KT 07/02 A3014 RMK A01 T00690021  RH  071%=      5-min Rain = 0
KTAS 231248Z 02020KT 07/02 A3014 RMK A01 T00690021  RH  071%=      5-min Rain = 0
KTAS 231249Z 02019KT 07/02 A3014 RMK A01 T00690021  RH  071%=      5-min Rain = 0
KTAS 231250Z 02017KT 07/02 A3014 RMK A01 T00690021  RH  071%=      5-min Rain = 0
KTAS 231251Z 01018KT 07/02 A3014 RMK A01 T00690021  RH  071%=      5-min Rain = 0
KTAS 231252Z 01017KT 07/02 A3014 RMK A01 T00690021  RH  071%=      5-min Rain = 0
KTAS 231253Z 01016G22KT 07/02 A3014 RMK A01 T00690021  RH  071%=      5-min Rain = 0
KTAS 231254Z 01021G26KT 07/02 A3014 RMK A01 T00690021  RH  071%=      5-min Rain = 0
KTAS 231255Z 01020KT 07/02 A3014 RMK A01 T00690021  RH  071%=      5-min Rain = 0
KTAS 231256Z 02017G23KT 07/02 A3014 RMK A01 T00690021  RH  071%=      5-min Rain = 0
KTAS 231257Z 01021KT 07/02 A3014 RMK A01 T00690021  RH  071%=      5-min Rain = 0
KTAS 231258Z 01021KT 07/02 A3014 RMK A01 T00680020  RH  072%=      5-min Rain = 0
KTAS 231259Z 01017KT 07/02 A3014 RMK A01 T00680020  RH  072%=      5-min Rain = 0
KTAS 231300Z 01021KT 07/02 A3014 RMK A01 T00680020  RH  072%=      5-min Rain = 0
KTAS 231301Z 02021KT 07/02 A3014 RMK A01 T00680020  RH  072%=      5-min Rain = 0
KTAS 231302Z 02020KT 07/02 A3014 RMK A01 T00680020  RH  072%=      5-min Rain = 0
KTAS 231303Z 02017G22KT 07/02 A3015 RMK A01 T00680020  RH  072%=      5-min Rain = 0
KTAS 231304Z 02019KT 07/02 A3015 RMK A01 T00680021  RH  072%=      5-min Rain = 0
KTAS 231305Z 01021KT 07/02 A3015 RMK A01 T00680021  RH  072%=      5-min Rain = 0
KTAS 231306Z 02022KT 07/02 A3015 RMK A01 T00680021  RH  072%=      5-min Rain = 0
KTAS 231307Z 02021KT 07/02 A3015 RMK A01 T00670020  RH  072%=      5-min Rain = 0
KTAS 231308Z 02018KT 07/02 A3015 RMK A01 T00670020  RH  072%=      5-min Rain = 0
KTAS 231309Z 01018KT 07/02 A3015 RMK A01 T00670020  RH  072%=      5-min Rain = 0
KTAS 231310Z 02020KT 07/02 A3015 RMK A01 T00680021  RH  072%=      5-min Rain = 0
KTAS 231311Z 02017G22KT 07/02 A3015 RMK A01 T00680021  RH  072%=      5-min Rain = 0
KTAS 231312Z 01016KT 07/02 A3015 RMK A01 T00680021  RH  072%=      5-min Rain = 0
KTAS 231313Z 01017KT 07/02 A3015 RMK A01 T00690021  RH  072%=      5-min Rain = 0
KTAS 231314Z 01020KT 07/02 A3015 RMK A01 T00690021  RH  071%=      5-min Rain = 0
KTAS 231315Z 01021G26KT 07/02 A3015 RMK A01 T00690020  RH  071%=      5-min Rain = 0
KTAS 231316Z 01019KT 07/02 A3015 RMK A01 T00690020  RH  071%=      5-min Rain = 0
KTAS 231317Z 01019KT 07/02 A3016 RMK A01 T00690020  RH  071%=      5-min Rain = 0
KTAS 231318Z 01020KT 07/02 A3016 RMK A01 T00680020  RH  071%=      5-min Rain = 0
KTAS 231319Z 01014KT 07/02 A3016 RMK A01 T00680020  RH  071%=      5-min Rain = 0
KTAS 231320Z 02020KT 07/02 A3016 RMK A01 T00690021  RH  071%=      5-min Rain = 0
KTAS 231321Z 02021KT 07/02 A3016 RMK A01 T00690020  RH  071%=      5-min Rain = 0
KTAS 231322Z 02018KT 07/02 A3016 RMK A01 T00690020  RH  071%=      5-min Rain = 0
KTAS 231323Z 02019KT 07/02 A3016 RMK A01 T00690020  RH  071%=      5-min Rain = 0
KTAS 231324Z 01020KT 07/02 A3016 RMK A01 T00680020  RH  071%=      5-min Rain = 0
KTAS 231325Z 01019KT 07/02 A3016 RMK A01 T00680019  RH  071%=      5-min Rain = 0
KTAS 231326Z 01019KT 07/02 A3017 RMK A01 T00680020  RH  071%=      5-min Rain = 0
KTAS 231327Z 01019G24KT 07/02 A3017 RMK A01 T00680019  RH  071%=      5-min Rain = 0
KTAS 231328Z 01017KT 07/02 A3017 RMK A01 T00680019  RH  071%=      5-min Rain = 0
KTAS 231329Z 01021KT 07/02 A3017 RMK A01 T00680018  RH  071%=      5-min Rain = 0
KTAS 231330Z 01021KT 07/02 A3017 RMK A01 T00670017  RH  070%=      5-min Rain = 0
KTAS 231331Z 02022KT 07/02 A3017 RMK A01 T00670017  RH  070%=      5-min Rain = 0
KTAS 231332Z 02016KT 07/02 A3017 RMK A01 T00670017  RH  070%=      5-min Rain = 0
KTAS 231333Z 02020KT 07/02 A3017 RMK A01 T00670016  RH  070%=      5-min Rain = 0
KTAS 231334Z 02022KT 07/02 A3017 RMK A01 T00660016  RH  070%=      5-min Rain = 0
KTAS 231335Z 02022KT 07/02 A3017 RMK A01 T00660015  RH  070%=      5-min Rain = 0
KTAS 231336Z 02020KT 07/02 A3018 RMK A01 T00650015  RH  070%=      5-min Rain = 0
KTAS 231337Z 02017KT 07/02 A3018 RMK A01 T00650016  RH  070%=      5-min Rain = 0
KTAS 231338Z 01019KT 07/02 A3018 RMK A01 T00660016  RH  070%=      5-min Rain = 0
KTAS 231339Z 01018G23KT 07/02 A3018 RMK A01 T00660016  RH  070%=      5-min Rain = 0
KTAS 231340Z 01017G22KT 07/02 A3018 RMK A01 T00660016  RH  070%=      5-min Rain = 0
KTAS 231341Z 02021G26KT 07/02 A3018 RMK A01 T00660015  RH  070%=      5-min Rain = 0
KTAS 231342Z 02020KT 07/02 A3018 RMK A01 T00650015  RH  070%=      5-min Rain = 0
KTAS 231343Z 01019KT 07/02 A3018 RMK A01 T00650015  RH  070%=      5-min Rain = 0
KTAS 231344Z 01020KT 07/02 A3018 RMK A01 T00650015  RH  070%=      5-min Rain = 0
KTAS 231345Z 02019G25KT 07/02 A3018 RMK A01 T00650015  RH  070%=      5-min Rain = 0
KTAS 231346Z 01019KT 07/02 A3018 RMK A01 T00650015  RH  070%=      5-min Rain = 0
KTAS 231347Z 01019KT 07/02 A3018 RMK A01 T00650015  RH  070%=      5-min Rain = 0
KTAS 231348Z 01018KT 07/02 A3018 RMK A01 T00650015  RH  070%=      5-min Rain = 0
KTAS 231349Z 01016KT 07/02 A3018 RMK A01 T00650015  RH  070%=      5-min Rain = 0
KTAS 231350Z 01017KT 07/02 A3019 RMK A01 T00650015  RH  070%=      5-min Rain = 0
KTAS 231351Z 02018KT 07/02 A3019 RMK A01 T00650015  RH  070%=      5-min Rain = 0
KTAS 231352Z 02019KT 07/02 A3019 RMK A01 T00650015  RH  070%=      5-min Rain = 0
KTAS 231353Z 02018KT 07/02 A3019 RMK A01 T00650015  RH  070%=      5-min Rain = 0
KTAS 231354Z 02020KT 07/02 A3019 RMK A01 T00650015  RH  070%=      5-min Rain = 0
KTAS 231355Z 02016KT 07/02 A3019 RMK A01 T00660016  RH  070%=      5-min Rain = 0
KTAS 231356Z 01017G22KT 07/02 A3019 RMK A01 T00660016  RH  070%=      5-min Rain = 0
KTAS 231357Z 01019KT 07/02 A3019 RMK A01 T00660016  RH  070%=      5-min Rain = 0
KTAS 231358Z 02022G27KT 07/02 A3019 RMK A01 T00660016  RH  070%=      5-min Rain = 0
KTAS 231359Z 01023G28KT 07/02 A3019 RMK A01 T00660016  RH  070%=      5-min Rain = 0
KTAS 231400Z 01021G27KT 07/02 A3019 RMK A01 T00660016  RH  071%=      5-min Rain = 0
KTAS 231401Z 01020KT 07/02 A302 RMK A01 T00650016  RH  071%=      5-min Rain = 0
KTAS 231402Z 01021KT 07/02 A302 RMK A01 T00660017  RH  071%=      5-min Rain = 0
KTAS 231403Z 01023KT 07/02 A302 RMK A01 T00650016  RH  071%=      5-min Rain = 0
KTAS 231404Z 02017G23KT 07/02 A302 RMK A01 T00650016  RH  071%=      5-min Rain = 0
KTAS 231405Z 01019KT 07/02 A302 RMK A01 T00660017  RH  071%=      5-min Rain = 0
KTAS 231406Z 01023KT 07/02 A302 RMK A01 T00660017  RH  071%=      5-min Rain = 0
KTAS 231407Z 01019KT 07/02 A302 RMK A01 T00650016  RH  071%=      5-min Rain = 0
KTAS 231408Z 01018G24KT 07/02 A302 RMK A01 T00660017  RH  071%=      5-min Rain = 0
KTAS 231409Z 01019G24KT 07/02 A302 RMK A01 T00670017  RH  071%=      5-min Rain = 0
KTAS 231410Z 01021KT 07/02 A302 RMK A01 T00670017  RH  071%=      5-min Rain = 0
KTAS 231411Z 02018KT 07/02 A302 RMK A01 T00670017  RH  071%=      5-min Rain = 0
KTAS 231412Z 01016G22KT 07/02 A3021 RMK A01 T00670018  RH  071%=      5-min Rain = 0
KTAS 231413Z 01019KT 07/02 A3021 RMK A01 T00670017  RH  070%=      5-min Rain = 0
KTAS 231414Z 01016KT 07/02 A3021 RMK A01 T00670017  RH  070%=      5-min Rain = 0
KTAS 231415Z 01015KT 07/02 A3021 RMK A01 T00670017  RH  070%=      5-min Rain = 0
KTAS 231416Z 02019KT 07/02 A3021 RMK A01 T00670017  RH  070%=      5-min Rain = 0
KTAS 231417Z 02018KT 07/02 A3021 RMK A01 T00670017  RH  070%=      5-min Rain = 0
KTAS 231418Z 02021KT 07/02 A3022 RMK A01 T00670017  RH  070%=      5-min Rain = 0
KTAS 231419Z 02020KT 07/02 A3022 RMK A01 T00670016  RH  070%=      5-min Rain = 0
KTAS 231420Z 02019KT 07/02 A3022 RMK A01 T00670016  RH  070%=      5-min Rain = 0
KTAS 231421Z 02019G24KT 07/02 A3022 RMK A01 T00670016  RH  070%=      5-min Rain = 0
KTAS 231422Z 02018KT 07/02 A3022 RMK A01 T00670015  RH  069%=      5-min Rain = 0
KTAS 231423Z 01018KT 07/02 A3022 RMK A01 T00670015  RH  069%=      5-min Rain = 0
KTAS 231424Z 01013KT 07/02 A3022 RMK A01 T00670015  RH  069%=      5-min Rain = 0
KTAS 231425Z 01013G19KT 07/02 A3023 RMK A01 T00680016  RH  069%=      5-min Rain = 0
KTAS 231426Z 01017KT 07/02 A3023 RMK A01 T00680016  RH  069%=      5-min Rain = 0
KTAS 231427Z 01017KT 07/02 A3023 RMK A01 T00680015  RH  069%=      5-min Rain = 0
KTAS 231428Z 02015KT 07/02 A3023 RMK A01 T00670015  RH  069%=      5-min Rain = 0
KTAS 231429Z 02016G21KT 07/02 A3023 RMK A01 T00680016  RH  069%=      5-min Rain = 0
KTAS 231430Z 02018KT 07/02 A3023 RMK A01 T00680015  RH  069%=      5-min Rain = 0
KTAS 231431Z 01017KT 07/01 A3023 RMK A01 T00670014  RH  069%=      5-min Rain = 0
KTAS 231432Z 01017KT 07/01 A3023 RMK A01 T00670013  RH  068%=      5-min Rain = 0
KTAS 231433Z 01019KT 07/01 A3023 RMK A01 T00670011  RH  068%=      5-min Rain = 0
KTAS 231434Z 01018KT 07/01 A3023 RMK A01 T00660010  RH  067%=      5-min Rain = 0
KTAS 231435Z 01019KT 07/01 A3023 RMK A01 T00650009  RH  067%=      5-min Rain = 0
KTAS 231436Z 00020KT 07/01 A3023 RMK A01 T00650009  RH  067%=      5-min Rain = 0
KTAS 231437Z 01018KT 07/01 A3023 RMK A01 T00650009  RH  067%=      5-min Rain = 0
KTAS 231438Z 01016KT 07/01 A3023 RMK A01 T00650008  RH  067%=      5-min Rain = 0
KTAS 231439Z 01017KT 07/01 A3023 RMK A01 T00650008  RH  067%=      5-min Rain = 0
KTAS 231440Z 01018KT 07/01 A3023 RMK A01 T00650009  RH  067%=      5-min Rain = 0
KTAS 231441Z 01019G24KT 07/01 A3023 RMK A01 T00650008  RH  067%=      5-min Rain = 0
KTAS 231442Z 01017KT 07/01 A3023 RMK A01 T00660008  RH  067%=      5-min Rain = 0
KTAS 231443Z 01017KT 07/01 A3023 RMK A01 T00650007  RH  066%=      5-min Rain = 0
KTAS 231444Z 02015KT 07/01 A3024 RMK A01 T00660008  RH  066%=      5-min Rain = 0
KTAS 231445Z 01015G23KT 07/01 A3024 RMK A01 T00670009  RH  066%=      5-min Rain = 0
KTAS 231446Z 01019KT 07/01 A3024 RMK A01 T00670009  RH  066%=      5-min Rain = 0
KTAS 231447Z 01019KT 07/01 A3024 RMK A01 T00670009  RH  066%=      5-min Rain = 0
KTAS 231448Z 02020G25KT 07/01 A3024 RMK A01 T00670008  RH  066%=      5-min Rain = 0
KTAS 231449Z 01022G27KT 07/01 A3024 RMK A01 T00660007  RH  066%=      5-min Rain = 0
KTAS 231450Z 01021KT 07/01 A3024 RMK A01 T00660007  RH  066%=      5-min Rain = 0
KTAS 231451Z 01020KT 07/01 A3024 RMK A01 T00660007  RH  066%=      5-min Rain = 0
KTAS 231452Z 02024KT 07/01 A3024 RMK A01 T00650006  RH  066%=      5-min Rain = 0
KTAS 231453Z 03023KT 06/01 A3024 RMK A01 T00630005  RH  066%=      5-min Rain = 0
KTAS 231454Z 02022KT 06/01 A3024 RMK A01 T00630005  RH  066%=      5-min Rain = 0
KTAS 231455Z 02020KT 06/01 A3024 RMK A01 T00630005  RH  066%=      5-min Rain = 0
KTAS 231456Z 02018KT 06/01 A3024 RMK A01 T00640005  RH  066%=      5-min Rain = 0
KTAS 231457Z 02018G24KT 07/01 A3024 RMK A01 T00650005  RH  066%=      5-min Rain = 0
KTAS 231458Z 01021KT 07/01 A3024 RMK A01 T00650005  RH  065%=      5-min Rain = 0
KTAS 231459Z 01024KT 07/00 A3024 RMK A01 T00650004  RH  065%=      5-min Rain = 0
KTAS 231500Z 01022G28KT 06/00 A3024 RMK A01 T00640004  RH  065%=      5-min Rain = 0
KTAS 231501Z 01023G28KT 06/00 A3024 RMK A01 T00640003  RH  065%=      5-min Rain = 0
KTAS 231502Z 01022KT 06/00 A3024 RMK A01 T00640004  RH  065%=      5-min Rain = 0
KTAS 231503Z 01021G26KT 07/00 A3025 RMK A01 T00650004  RH  065%=      5-min Rain = 0
KTAS 231504Z 00023KT 07/00 A3025 RMK A01 T00650004  RH  065%=      5-min Rain = 0
KTAS 231505Z 01023G28KT 06/00 A3025 RMK A01 T00640003  RH  065%=      5-min Rain = 0
KTAS 231506Z 01023KT 06/00 A3025 RMK A01 T00640003  RH  065%=      5-min Rain = 0
KTAS 231507Z 01021KT 06/00 A3025 RMK A01 T00640003  RH  065%=      5-min Rain = 0
KTAS 231508Z 02021KT 06/00 A3025 RMK A01 T00640003  RH  065%=      5-min Rain = 0
KTAS 231509Z 01020G25KT 06/00 A3025 RMK A01 T00640003  RH  065%=      5-min Rain = 0
KTAS 231510Z 02021KT 07/00 A3025 RMK A01 T00650003  RH  065%=      5-min Rain = 0
KTAS 231511Z 02021KT 06/00 A3026 RMK A01 T00640002  RH  064%=      5-min Rain = 0
KTAS 231512Z 01017G22KT 07/00 A3026 RMK A01 T00650002  RH  064%=      5-min Rain = 0
KTAS 231513Z 01020KT 07/00 A3026 RMK A01 T00660002  RH  064%=      5-min Rain = 0
KTAS 231514Z 02021KT 07/00 A3026 RMK A01 T00650002  RH  064%=      5-min Rain = 0
KTAS 231515Z 01021KT 07/00 A3026 RMK A01 T00650001  RH  064%=      5-min Rain = 0
KTAS 231516Z 01021KT 07/00 A3026 RMK A01 T00650002  RH  064%=      5-min Rain = 0
KTAS 231517Z 01021KT 07/00 A3026 RMK A01 T00650001  RH  064%=      5-min Rain = 0
KTAS 231518Z 02020KT 07/00 A3026 RMK A01 T00650001  RH  063%=      5-min Rain = 0
KTAS 231519Z 02019G24KT 07/00 A3026 RMK A01 T00670002  RH  063%=      5-min Rain = 0
KTAS 231520Z 02018KT 07/00 A3026 RMK A01 T00670002  RH  063%=      5-min Rain = 0
KTAS 231521Z 02020KT 07/00 A3026 RMK A01 T00670002  RH  063%=      5-min Rain = 0
KTAS 231522Z 02018G23KT 07/00 A3026 RMK A01 T00670002  RH  063%=      5-min Rain = 0
KTAS 231523Z 02019KT 07/00 A3026 RMK A01 T00680003  RH  063%=      5-min Rain = 0
KTAS 231524Z 03019KT 07/00 A3026 RMK A01 T00680002  RH  063%=      5-min Rain = 0
KTAS 231525Z 03021G26KT 07/00 A3026 RMK A01 T00680003  RH  063%=      5-min Rain = 0
KTAS 231526Z 02023KT 07/00 A3026 RMK A01 T00680002  RH  063%=      5-min Rain = 0
KTAS 231527Z 02018G23KT 07/00 A3026 RMK A01 T00670002  RH  063%=      5-min Rain = 0
KTAS 231528Z 02020KT 07/00 A3026 RMK A01 T00670002  RH  063%=      5-min Rain = 0
KTAS 231529Z 02020KT 07/00 A3026 RMK A01 T00670002  RH  063%=      5-min Rain = 0
KTAS 231530Z 02020KT 07/00 A3026 RMK A01 T00670002  RH  063%=      5-min Rain = 0
KTAS 231531Z 01021KT 07/00 A3026 RMK A01 T00670002  RH  063%=      5-min Rain = 0
KTAS 231532Z 02021KT 07/00 A3026 RMK A01 T00670002  RH  063%=      5-min Rain = 0
KTAS 231533Z 02020KT 07/00 A3026 RMK A01 T00670002  RH  063%=      5-min Rain = 0
KTAS 231534Z 02018KT 07/00 A3026 RMK A01 T00680002  RH  063%=      5-min Rain = 0
KTAS 231535Z 01020G25KT 07/00 A3027 RMK A01 T00680002  RH  063%=      5-min Rain = 0
KTAS 231536Z 01018KT 07/00 A3027 RMK A01 T00670000  RH  062%=      5-min Rain = 0
KTAS 231537Z 01018KT 07/00 A3027 RMK A01 T00680001  RH  062%=      5-min Rain = 0
KTAS 231538Z 02020KT 07/00 A3027 RMK A01 T00690000  RH  062%=      5-min Rain = 0
KTAS 231539Z 02020KT 07/00 A3026 RMK A01 T00690000  RH  062%=      5-min Rain = 0
KTAS 231540Z 02019KT 07/00 A3026 RMK A01 T00690000  RH  062%=      5-min Rain = 0
KTAS 231541Z 01019KT 07/00 A3027 RMK A01 T00700001  RH  061%=      5-min Rain = 0
KTAS 231542Z 02018G23KT 07/00 A3027 RMK A01 T00700001  RH  061%=      5-min Rain = 0
KTAS 231543Z 02018G24KT 07/00 A3027 RMK A01 T00710000  RH  061%=      5-min Rain = 0
KTAS 231544Z 01021KT 07/M00 A3027 RMK A01 T00701001  RH  060%=      5-min Rain = 0
KTAS 231545Z 01019KT 07/M00 A3027 RMK A01 T00691001  RH  061%=      5-min Rain = 0
KTAS 231546Z 01018KT 07/00 A3027 RMK A01 T007000-0  RH  061%=      5-min Rain = 0
KTAS 231547Z 01018KT 07/00 A3027 RMK A01 T007100-0  RH  061%=      5-min Rain = 0
KTAS 231548Z 01018KT 07/00 A3027 RMK A01 T007100-0  RH  060%=      5-min Rain = 0
KTAS 231549Z 00018G24KT 07/00 A3027 RMK A01 T007100-0  RH  060%=      5-min Rain = 0
KTAS 231550Z 01021KT 07/M00 A3027 RMK A01 T00711001  RH  060%=      5-min Rain = 0
KTAS 231551Z 01021KT 07/M00 A3027 RMK A01 T00701001  RH  060%=      5-min Rain = 0
KTAS 231552Z 01018KT 07/00 A3027 RMK A01 T007000-0  RH  061%=      5-min Rain = 0
KTAS 231553Z 02019KT 07/00 A3027 RMK A01 T00710000  RH  061%=      5-min Rain = 0
KTAS 231554Z 02016KT 07/M00 A3028 RMK A01 T00711001  RH  060%=      5-min Rain = 0
KTAS 231555Z 02018KT 07/00 A3027 RMK A01 T00720000  RH  060%=      5-min Rain = 0
KTAS 231556Z 01021KT 07/M00 A3027 RMK A01 T00711001  RH  060%=      5-min Rain = 0
KTAS 231557Z 01017G25KT 07/00 A3027 RMK A01 T007100-0  RH  060%=      5-min Rain = 0
KTAS 231558Z 01019KT 07/00 A3028 RMK A01 T007100-0  RH  061%=      5-min Rain = 0
KTAS 231559Z 01018G23KT 07/00 A3028 RMK A01 T00710000  RH  061%=      5-min Rain = 0
KTAS 231600Z 01020KT 07/00 A3028 RMK A01 T00710000  RH  061%=      5-min Rain = 0
KTAS 231601Z 02020KT 07/00 A3028 RMK A01 T007100-0  RH  061%=      5-min Rain = 0
KTAS 231602Z 01016G21KT 07/00 A3028 RMK A01 T007100-0  RH  061%=      5-min Rain = 0
KTAS 231603Z 01018G23KT 07/00 A3028 RMK A01 T00720001  RH  061%=      5-min Rain = 0
KTAS 231604Z 02020KT 07/00 A3028 RMK A01 T007200-0  RH  060%=      5-min Rain = 0
KTAS 231605Z 02020KT 07/M00 A3028 RMK A01 T00711001  RH  060%=      5-min Rain = 0
KTAS 231606Z 01020KT 07/00 A3028 RMK A01 T007100-0  RH  061%=      5-min Rain = 0
KTAS 231607Z 02019KT 07/M00 A3028 RMK A01 T00701001  RH  061%=      5-min Rain = 0
KTAS 231608Z 02018KT 07/M00 A3028 RMK A01 T00701001  RH  061%=      5-min Rain = 0
KTAS 231609Z 02021KT 07/M00 A3028 RMK A01 T00711001  RH  060%=      5-min Rain = 0
KTAS 231610Z 01017KT 07/M00 A3028 RMK A01 T00711001  RH  060%=      5-min Rain = 0
KTAS 231611Z 00019G24KT 07/M00 A3028 RMK A01 T00711001  RH  060%=      5-min Rain = 0
KTAS 231612Z 01019KT 07/00 A3028 RMK A01 T007200-0  RH  060%=      5-min Rain = 0
KTAS 231613Z 01017G22KT 07/00 A3028 RMK A01 T00730000  RH  060%=      5-min Rain = 0
KTAS 231614Z 01017KT 07/00 A3028 RMK A01 T00740001  RH  060%=      5-min Rain = 0
KTAS 231615Z 00017G24KT 08/00 A3028 RMK A01 T00750001  RH  059%=      5-min Rain = 0
KTAS 231616Z 01022KT 08/00 A3028 RMK A01 T007500-0  RH  059%=      5-min Rain = 0
KTAS 231617Z 02020KT 07/00 A3028 RMK A01 T00740000  RH  059%=      5-min Rain = 0
KTAS 231618Z 03021KT 07/00 A3028 RMK A01 T007300-0  RH  060%=      5-min Rain = 0
KTAS 231619Z 02018G23KT 07/00 A3028 RMK A01 T007200-0  RH  060%=      5-min Rain = 0
KTAS 231620Z 03016G22KT 07/00 A3028 RMK A01 T00730001  RH  060%=      5-min Rain = 0
KTAS 231621Z 01017KT 08/00 A3028 RMK A01 T00750001  RH  060%=      5-min Rain = 0
KTAS 231622Z 01018KT 08/00 A3028 RMK A01 T00750000  RH  059%=      5-min Rain = 0
KTAS 231623Z 02016KT 08/00 A3028 RMK A01 T00760001  RH  059%=      5-min Rain = 0
KTAS 231624Z 02017KT 08/00 A3028 RMK A01 T00760000  RH  059%=      5-min Rain = 0
KTAS 231625Z 02021KT 08/00 A3028 RMK A01 T00760001  RH  059%=      5-min Rain = 0
KTAS 231626Z 03019KT 07/00 A3028 RMK A01 T00740000  RH  059%=      5-min Rain = 0
KTAS 231627Z 03021KT 07/00 A3028 RMK A01 T007400-0  RH  059%=      5-min Rain = 0
KTAS 231628Z 03020KT 07/00 A3028 RMK A01 T007300-0  RH  060%=      5-min Rain = 0
KTAS 231629Z 02021KT 07/00 A3028 RMK A01 T00740000  RH  060%=      5-min Rain = 0
KTAS 231630Z 02020KT 07/00 A3028 RMK A01 T007300-0  RH  060%=      5-min Rain = 0
KTAS 231631Z 01020KT 07/00 A3028 RMK A01 T00730000  RH  060%=      5-min Rain = 0
KTAS 231632Z 02021KT 07/00 A3028 RMK A01 T00740001  RH  060%=      5-min Rain = 0
KTAS 231633Z 02021KT 07/00 A3028 RMK A01 T00740001  RH  060%=      5-min Rain = 0
KTAS 231634Z 02021KT 07/00 A3028 RMK A01 T00740000  RH  060%=      5-min Rain = 0
KTAS 231635Z 02019KT 07/00 A3028 RMK A01 T00740000  RH  060%=      5-min Rain = 0
KTAS 231636Z 02019G24KT 07/00 A3028 RMK A01 T00740000  RH  059%=      5-min Rain = 0
KTAS 231637Z 02020KT 08/00 A3028 RMK A01 T007500-0  RH  059%=      5-min Rain = 0
KTAS 231638Z 02020KT 08/M00 A3028 RMK A01 T00751001  RH  059%=      5-min Rain = 0
KTAS 231639Z 02016G22KT 08/M00 A3028 RMK A01 T00751001  RH  059%=      5-min Rain = 0
KTAS 231640Z 01020KT 08/00 A3028 RMK A01 T00760000  RH  059%=      5-min Rain = 0
KTAS 231641Z 02017KT 08/00 A3028 RMK A01 T007600-0  RH  058%=      5-min Rain = 0
KTAS 231642Z 02019KT 08/00 A3028 RMK A01 T00760000  RH  059%=      5-min Rain = 0
KTAS 231643Z 02017KT 08/00 A3029 RMK A01 T00770001  RH  058%=      5-min Rain = 0
KTAS 231644Z 02016KT 08/00 A3029 RMK A01 T00800002  RH  058%=      5-min Rain = 0
KTAS 231645Z 02019KT 08/M00 A3029 RMK A01 T00791001  RH  057%=      5-min Rain = 0
KTAS 231646Z 02020KT 08/M00 A3029 RMK A01 T00781003  RH  057%=      5-min Rain = 0
KTAS 231647Z 01017KT 08/M00 A3029 RMK A01 T00771002  RH  057%=      5-min Rain = 0
KTAS 231648Z 00019KT 08/M00 A3029 RMK A01 T00771002  RH  057%=      5-min Rain = 0
KTAS 231649Z 01019KT 08/M00 A3029 RMK A01 T00761002  RH  058%=      5-min Rain = 0
KTAS 231650Z 01019KT 08/M00 A3029 RMK A01 T00751003  RH  057%=      5-min Rain = 0
KTAS 231651Z 02019KT 08/M00 A3029 RMK A01 T00751003  RH  058%=      5-min Rain = 0
KTAS 231652Z 01019KT 07/M00 A3029 RMK A01 T00741004  RH  058%=      5-min Rain = 0
KTAS 231653Z 01019KT 07/M00 A3029 RMK A01 T00741003  RH  058%=      5-min Rain = 0
KTAS 231654Z 02015KT 08/M00 A3029 RMK A01 T00761001  RH  058%=      5-min Rain = 0
KTAS 231655Z 01020KT 08/M00 A3029 RMK A01 T00781002  RH  057%=      5-min Rain = 0
KTAS 231656Z 01015G21KT 08/M01 A3029 RMK A01 T00751005  RH  056%=      5-min Rain = 0
KTAS 231657Z 00016G22KT 08/M00 A3029 RMK A01 T00761003  RH  057%=      5-min Rain = 0
KTAS 231658Z 01021KT 08/M00 A3029 RMK A01 T00771004  RH  057%=      5-min Rain = 0
KTAS 231659Z 01018KT 08/M01 A3029 RMK A01 T00751005  RH  057%=      5-min Rain = 0
KTAS 231700Z 01014KT 08/M00 A3029 RMK A01 T00751004  RH  057%=      5-min Rain = 0
KTAS 231701Z 01018KT 08/M00 A3029 RMK A01 T00781002  RH  057%=      5-min Rain = 0
KTAS 231702Z 00019KT 08/M01 A3029 RMK A01 T00771005  RH  056%=      5-min Rain = 0
KTAS 231703Z 01018G23KT 08/M01 A3029 RMK A01 T00761005  RH  056%=      5-min Rain = 0
KTAS 231704Z 01017G22KT 08/M00 A3029 RMK A01 T00781003  RH  056%=      5-min Rain = 0
KTAS 231705Z 01017KT 08/M00 A3029 RMK A01 T00781004  RH  056%=      5-min Rain = 0
KTAS 231706Z 02021KT 08/M00 A3029 RMK A01 T00771004  RH  056%=      5-min Rain = 0
KTAS 231707Z 01019G24KT 08/M00 A3029 RMK A01 T00761004  RH  057%=      5-min Rain = 0
KTAS 231708Z 01017KT 08/M00 A3029 RMK A01 T00761004  RH  057%=      5-min Rain = 0
KTAS 231709Z 02019KT 08/M00 A3029 RMK A01 T00761004  RH  057%=      5-min Rain = 0
KTAS 231710Z 02018KT 07/M00 A3029 RMK A01 T00741004  RH  057%=      5-min Rain = 0
KTAS 231711Z 02017KT 08/M00 A3029 RMK A01 T00761003  RH  057%=      5-min Rain = 0
KTAS 231712Z 03014KT 08/M00 A3029 RMK A01 T00781002  RH  057%=      5-min Rain = 0
KTAS 231713Z 02016KT 08/M00 A3029 RMK A01 T00801003  RH  056%=      5-min Rain = 0
KTAS 231714Z 02018KT 08/M01 A3029 RMK A01 T00781005  RH  055%=      5-min Rain = 0
KTAS 231715Z 01017KT 08/M01 A3029 RMK A01 T00781005  RH  056%=      5-min Rain = 0
KTAS 231716Z 02019KT 08/M01 A3029 RMK A01 T00771005  RH  056%=      5-min Rain = 0
KTAS 231717Z 03018KT 08/M00 A3029 RMK A01 T00771004  RH  056%=      5-min Rain = 0
KTAS 231718Z 02017KT 08/M01 A3029 RMK A01 T00771005  RH  056%=      5-min Rain = 0
KTAS 231719Z 02019KT 08/M01 A3029 RMK A01 T00781005  RH  056%=      5-min Rain = 0
KTAS 231720Z 00017KT 08/M00 A3029 RMK A01 T00801004  RH  056%=      5-min Rain = 0
KTAS 231721Z 01019KT 08/M01 A3029 RMK A01 T00801005  RH  055%=      5-min Rain = 0
KTAS 231722Z 02018KT 08/M01 A3029 RMK A01 T00791006  RH  055%=      5-min Rain = 0
KTAS 231723Z 01017KT 08/M01 A3029 RMK A01 T00781006  RH  055%=      5-min Rain = 0
KTAS 231724Z 02015KT 08/M01 A3029 RMK A01 T00781006  RH  056%=      5-min Rain = 0
KTAS 231725Z 02017KT 08/M01 A3029 RMK A01 T00781005  RH  056%=      5-min Rain = 0
KTAS 231726Z 01017G22KT 08/M00 A3029 RMK A01 T00801004  RH  055%=      5-min Rain = 0
KTAS 231727Z 01022KT 08/M01 A3029 RMK A01 T00801005  RH  055%=      5-min Rain = 0
KTAS 231728Z 02020KT 08/M01 A303 RMK A01 T00781006  RH  055%=      5-min Rain = 0
KTAS 231729Z 02017KT 08/M01 A303 RMK A01 T00761006  RH  056%=      5-min Rain = 0
KTAS 231730Z 03017KT 08/M01 A303 RMK A01 T00771005  RH  056%=      5-min Rain = 0
KTAS 231731Z 02014KT 08/M00 A303 RMK A01 T00791004  RH  056%=      5-min Rain = 0
KTAS 231732Z 01020KT 08/M01 A303 RMK A01 T00791006  RH  055%=      5-min Rain = 0
KTAS 231733Z 02017KT 08/M01 A303 RMK A01 T00761008  RH  055%=      5-min Rain = 0
KTAS 231734Z 01017KT 08/M01 A303 RMK A01 T00761006  RH  056%=      5-min Rain = 0
KTAS 231735Z 00019KT 08/M01 A303 RMK A01 T00771006  RH  056%=      5-min Rain = 0
KTAS 231736Z 01018KT 08/M01 A303 RMK A01 T00771006  RH  056%=      5-min Rain = 0
KTAS 231737Z 02019KT 08/M01 A303 RMK A01 T00771006  RH  056%=      5-min Rain = 0
KTAS 231738Z 02017KT 08/M01 A303 RMK A01 T00771005  RH  056%=      5-min Rain = 0
KTAS 231739Z 01016G22KT 08/M00 A303 RMK A01 T00791003  RH  056%=      5-min Rain = 0
KTAS 231740Z 00018KT 08/M01 A303 RMK A01 T00791005  RH  055%=      5-min Rain = 0
KTAS 231741Z 01017KT 08/M00 A303 RMK A01 T00811003  RH  055%=      5-min Rain = 0
KTAS 231742Z 01015G20KT 08/M00 A303 RMK A01 T00801004  RH  055%=      5-min Rain = 0
KTAS 231743Z 02013KT 08/M00 A303 RMK A01 T00821002  RH  055%=      5-min Rain = 0
KTAS 231744Z 01018KT 08/M00 A303 RMK A01 T00831004  RH  054%=      5-min Rain = 0
KTAS 231745Z 01016KT 08/M01 A303 RMK A01 T00811005  RH  054%=      5-min Rain = 0
KTAS 231746Z 01013KT 08/M00 A303 RMK A01 T00821004  RH  055%=      5-min Rain = 0
KTAS 231747Z 01018G23KT 08/M01 A303 RMK A01 T00831005  RH  054%=      5-min Rain = 0
KTAS 231748Z 02016KT 08/M01 A303 RMK A01 T00811005  RH  054%=      5-min Rain = 0
KTAS 231749Z 01015KT 08/M01 A303 RMK A01 T00821005  RH  054%=      5-min Rain = 0
KTAS 231750Z 02015KT 08/M01 A303 RMK A01 T00831005  RH  054%=      5-min Rain = 0
KTAS 231751Z 01016KT 08/M01 A303 RMK A01 T00821006  RH  054%=      5-min Rain = 0
KTAS 231752Z 02015KT 08/M01 A303 RMK A01 T00801006  RH  054%=      5-min Rain = 0
KTAS 231753Z 01016KT 08/M01 A303 RMK A01 T00791006  RH  055%=      5-min Rain = 0
KTAS 231754Z 02017KT 08/M01 A303 RMK A01 T00791006  RH  055%=      5-min Rain = 0
KTAS 231755Z 01016KT 08/M01 A303 RMK A01 T00791006  RH  055%=      5-min Rain = 0
KTAS 231756Z 00016KT 08/M01 A303 RMK A01 T00791006  RH  055%=      5-min Rain = 0
KTAS 231757Z 01018KT 08/M01 A303 RMK A01 T00791006  RH  055%=      5-min Rain = 0
KTAS 231758Z 00018KT 08/M01 A303 RMK A01 T00791006  RH  055%=      5-min Rain = 0
KTAS 231759Z 00019KT 08/M01 A303 RMK A01 T00791005  RH  055%=      5-min Rain = 0
KTAS 231800Z 01018KT 08/M01 A303 RMK A01 T00791005  RH  055%=      5-min Rain = 0
KTAS 231801Z 02016KT 08/M00 A303 RMK A01 T00801004  RH  055%=      5-min Rain = 0
KTAS 231802Z 01020KT 08/M00 A303 RMK A01 T00821004  RH  055%=      5-min Rain = 0
KTAS 231803Z 01016KT 08/M00 A303 RMK A01 T00821004  RH  055%=      5-min Rain = 0
KTAS 231804Z 02017KT 08/M00 A303 RMK A01 T00831004  RH  054%=      5-min Rain = 0
KTAS 231805Z 02015KT 08/M00 A303 RMK A01 T00821004  RH  055%=      5-min Rain = 0
KTAS 231806Z 01017KT 08/M00 A303 RMK A01 T00831003  RH  055%=      5-min Rain = 0
KTAS 231807Z 02016KT 08/M00 A303 RMK A01 T00831004  RH  054%=      5-min Rain = 0
KTAS 231808Z 02016KT 08/M00 A303 RMK A01 T00831004  RH  054%=      5-min Rain = 0
KTAS 231809Z 01018KT 08/M01 A303 RMK A01 T00831005  RH  054%=      5-min Rain = 0
KTAS 231810Z 01017KT 08/M01 A303 RMK A01 T00811007  RH  054%=      5-min Rain = 0
KTAS 231811Z 02014KT 08/M01 A303 RMK A01 T00801006  RH  055%=      5-min Rain = 0
KTAS 231812Z 01013G19KT 08/M00 A303 RMK A01 T00821004  RH  055%=      5-min Rain = 0
KTAS 231813Z 02015KT 08/M00 A303 RMK A01 T00841004  RH  054%=      5-min Rain = 0
KTAS 231814Z 02015KT 08/M00 A303 RMK A01 T00841004  RH  054%=      5-min Rain = 0
KTAS 231815Z 02017G23KT 09/M00 A303 RMK A01 T00851002  RH  054%=      5-min Rain = 0
KTAS 231816Z 01017KT 09/M00 A303 RMK A01 T00861003  RH  054%=      5-min Rain = 0
KTAS 231817Z 01011KT 09/M00 A303 RMK A01 T00861003  RH  053%=      5-min Rain = 0
KTAS 231818Z 03012KT 09/M00 A303 RMK A01 T00881002  RH  053%=      5-min Rain = 0
KTAS 231819Z 03015KT 09/M00 A303 RMK A01 T00881003  RH  053%=      5-min Rain = 0
KTAS 231820Z 04016KT 09/M00 A303 RMK A01 T00861004  RH  053%=      5-min Rain = 0
KTAS 231821Z 02013KT 09/M00 A303 RMK A01 T00861003  RH  053%=      5-min Rain = 0
KTAS 231822Z 03012KT 09/M00 A303 RMK A01 T00871003  RH  053%=      5-min Rain = 0
KTAS 231823Z 02015KT 09/M00 A303 RMK A01 T00891002  RH  053%=      5-min Rain = 0
KTAS 231824Z 02014KT 09/M01 A303 RMK A01 T00871005  RH  052%=      5-min Rain = 0
KTAS 231825Z 01012KT 09/M01 A303 RMK A01 T00851005  RH  053%=      5-min Rain = 0
KTAS 231826Z 02013KT 09/M00 A303 RMK A01 T00871003  RH  053%=      5-min Rain = 0
KTAS 231827Z 03015KT 09/M00 A303 RMK A01 T00881003  RH  053%=      5-min Rain = 0
KTAS 231828Z 02016KT 09/M01 A303 RMK A01 T00861005  RH  053%=      5-min Rain = 0
KTAS 231829Z 02013KT 09/M00 A3031 RMK A01 T00851003  RH  054%=      5-min Rain = 0
KTAS 231830Z 03013KT 09/M00 A303 RMK A01 T00871003  RH  053%=      5-min Rain = 0
KTAS 231831Z 02013KT 09/M01 A303 RMK A01 T00861005  RH  053%=      5-min Rain = 0
KTAS 231832Z 02013KT 09/M00 A303 RMK A01 T00861004  RH  053%=      5-min Rain = 0
KTAS 231833Z 01014KT 09/M00 A303 RMK A01 T00871003  RH  053%=      5-min Rain = 0
KTAS 231834Z 01015KT 09/M00 A3031 RMK A01 T00881003  RH  053%=      5-min Rain = 0
KTAS 231835Z 01017KT 09/M01 A303 RMK A01 T00871006  RH  052%=      5-min Rain = 0
KTAS 231836Z 01015KT 09/M01 A303 RMK A01 T00861006  RH  053%=      5-min Rain = 0
KTAS 231837Z 01016KT 09/M01 A303 RMK A01 T00861006  RH  053%=      5-min Rain = 0
KTAS 231838Z 02014KT 08/M01 A303 RMK A01 T00841006  RH  053%=      5-min Rain = 0
KTAS 231839Z 01011KT 09/M01 A303 RMK A01 T00851005  RH  053%=      5-min Rain = 0
KTAS 231840Z 02014KT 09/M00 A303 RMK A01 T00871003  RH  053%=      5-min Rain = 0
KTAS 231841Z 02017KT 09/M00 A303 RMK A01 T00881004  RH  053%=      5-min Rain = 0
KTAS 231842Z 02016KT 09/M00 A303 RMK A01 T00881004  RH  052%=      5-min Rain = 0
KTAS 231843Z 02014KT 09/M00 A303 RMK A01 T00881003  RH  053%=      5-min Rain = 0
KTAS 231844Z 03014KT 09/M00 A303 RMK A01 T00891004  RH  052%=      5-min Rain = 0
KTAS 231845Z 03012KT 09/M00 A303 RMK A01 T00881004  RH  052%=      5-min Rain = 0
KTAS 231846Z 03014KT 09/M00 A303 RMK A01 T00891004  RH  052%=      5-min Rain = 0
KTAS 231847Z 03013KT 09/M01 A303 RMK A01 T00871007  RH  052%=      5-min Rain = 0
KTAS 231848Z 02012KT 09/M00 A303 RMK A01 T00881004  RH  052%=      5-min Rain = 0
KTAS 231849Z 02015KT 09/M00 A303 RMK A01 T00901004  RH  052%=      5-min Rain = 0
KTAS 231850Z 03015KT 09/M01 A303 RMK A01 T00911005  RH  051%=      5-min Rain = 0
KTAS 231851Z 02018KT 09/M01 A303 RMK A01 T00901005  RH  051%=      5-min Rain = 0
KTAS 231852Z 03016KT 09/M01 A303 RMK A01 T00891005  RH  052%=      5-min Rain = 0
KTAS 231853Z 02015KT 09/M00 A303 RMK A01 T00901004  RH  052%=      5-min Rain = 0
KTAS 231854Z 03015KT 09/M01 A303 RMK A01 T00901006  RH  051%=      5-min Rain = 0
KTAS 231855Z 03014KT 09/M01 A303 RMK A01 T00891005  RH  052%=      5-min Rain = 0
KTAS 231856Z 04017KT 09/M00 A3029 RMK A01 T00891004  RH  052%=      5-min Rain = 0
KTAS 231857Z 03016KT 09/M00 A303 RMK A01 T00901004  RH  052%=      5-min Rain = 0
KTAS 231858Z 02017KT 09/M01 A303 RMK A01 T00881006  RH  052%=      5-min Rain = 0
KTAS 231859Z 02013KT 09/M01 A303 RMK A01 T00881005  RH  052%=      5-min Rain = 0
KTAS 231900Z 03013KT 09/M00 A3029 RMK A01 T00911004  RH  052%=      5-min Rain = 0
KTAS 231901Z 02015KT 09/M01 A3029 RMK A01 T00901005  RH  051%=      5-min Rain = 0
KTAS 231902Z 03013KT 09/M00 A3029 RMK A01 T00921004  RH  051%=      5-min Rain = 0
KTAS 231903Z 02015KT 09/M00 A3029 RMK A01 T00941003  RH  051%=      5-min Rain = 0
KTAS 231904Z 01015KT 10/M01 A3029 RMK A01 T00951005  RH  050%=      5-min Rain = 0
KTAS 231905Z 01011KT 10/M01 A3029 RMK A01 T00961006  RH  049%=      5-min Rain = 0
KTAS 231906Z 00013KT 10/M01 A3029 RMK A01 T00961005  RH  049%=      5-min Rain = 0
KTAS 231907Z 01015KT 10/M01 A3029 RMK A01 T00951007  RH  049%=      5-min Rain = 0
KTAS 231908Z 01014KT 09/M01 A3029 RMK A01 T00941005  RH  050%=      5-min Rain = 0
KTAS 231909Z 02015G21KT 10/M00 A3029 RMK A01 T00961004  RH  050%=      5-min Rain = 0
KTAS 231910Z 02013KT 10/M01 A3029 RMK A01 T00951005  RH  050%=      5-min Rain = 0
KTAS 231911Z 01011G17KT 10/M01 A3029 RMK A01 T00951005  RH  050%=      5-min Rain = 0
KTAS 231912Z 02012KT 09/M01 A3029 RMK A01 T00941006  RH  050%=      5-min Rain = 0
KTAS 231913Z 02014KT 09/M01 A3029 RMK A01 T00931006  RH  050%=      5-min Rain = 0
KTAS 231914Z 03015KT 09/M01 A3029 RMK A01 T00921006  RH  050%=      5-min Rain = 0
KTAS 231915Z 02015KT 09/M01 A3029 RMK A01 T00911006  RH  050%=      5-min Rain = 0
KTAS 231916Z 02014KT 09/M01 A3029 RMK A01 T00911006  RH  051%=      5-min Rain = 0
KTAS 231917Z 01015KT 09/M01 A3029 RMK A01 T00921006  RH  050%=      5-min Rain = 0
KTAS 231918Z 00013KT 09/M01 A3029 RMK A01 T00911007  RH  050%=      5-min Rain = 0
KTAS 231919Z 36016G21KT 09/M01 A3029 RMK A01 T00911006  RH  051%=      5-min Rain = 0
KTAS 231920Z 36017KT 09/M01 A3029 RMK A01 T00941005  RH  050%=      5-min Rain = 0
KTAS 231921Z 36016KT 10/M01 A3028 RMK A01 T00961005  RH  050%=      5-min Rain = 0
KTAS 231922Z 01018KT 10/M01 A3028 RMK A01 T00951006  RH  049%=      5-min Rain = 0
KTAS 231923Z 01016KT 10/M01 A3028 RMK A01 T00951006  RH  049%=      5-min Rain = 0
KTAS 231924Z 01015KT 10/M01 A3028 RMK A01 T00951005  RH  050%=      5-min Rain = 0
KTAS 231925Z 01014KT 09/M01 A3028 RMK A01 T00941007  RH  050%=      5-min Rain = 0
KTAS 231926Z 00013KT 09/M01 A3028 RMK A01 T00931006  RH  050%=      5-min Rain = 0
KTAS 231927Z 01014G22KT 09/M01 A3028 RMK A01 T00941005  RH  050%=      5-min Rain = 0
KTAS 231928Z 02019KT 09/M01 A3028 RMK A01 T00941006  RH  050%=      5-min Rain = 0
KTAS 231929Z 03017KT 09/M01 A3028 RMK A01 T00941006  RH  050%=      5-min Rain = 0
KTAS 231930Z 01014KT 10/M00 A3028 RMK A01 T00971004  RH  049%=      5-min Rain = 0
KTAS 231931Z 00015KT 10/M01 A3028 RMK A01 T00961006  RH  049%=      5-min Rain = 0
KTAS 231932Z 00015KT 09/M01 A3028 RMK A01 T00941007  RH  049%=      5-min Rain = 0
KTAS 231933Z 01012KT 09/M01 A3028 RMK A01 T00941005  RH  050%=      5-min Rain = 0
KTAS 231934Z 02018KT 10/M00 A3028 RMK A01 T00971004  RH  049%=      5-min Rain = 0
KTAS 231935Z 02014KT 10/M01 A3028 RMK A01 T00961006  RH  049%=      5-min Rain = 0
KTAS 231936Z 00014KT 10/M00 A3028 RMK A01 T00981003  RH  049%=      5-min Rain = 0
KTAS 231937Z 36016KT 10/M01 A3028 RMK A01 T00981005  RH  049%=      5-min Rain = 0
KTAS 231938Z 00016KT 10/M01 A3028 RMK A01 T00961006  RH  049%=      5-min Rain = 0
KTAS 231939Z 36014KT 10/M01 A3028 RMK A01 T00951005  RH  050%=      5-min Rain = 0
KTAS 231940Z 01015KT 10/M01 A3028 RMK A01 T00951005  RH  050%=      5-min Rain = 0
KTAS 231941Z 02017KT 10/M01 A3027 RMK A01 T00951005  RH  050%=      5-min Rain = 0
KTAS 231942Z 03017KT 09/M01 A3027 RMK A01 T00941005  RH  050%=      5-min Rain = 0
KTAS 231943Z 03016KT 09/M01 A3027 RMK A01 T00941005  RH  050%=      5-min Rain = 0
KTAS 231944Z 02016KT 09/M01 A3027 RMK A01 T00931005  RH  050%=      5-min Rain = 0
KTAS 231945Z 01014KT 10/M00 A3028 RMK A01 T00951004  RH  050%=      5-min Rain = 0
KTAS 231946Z 03014KT 10/M01 A3027 RMK A01 T00951006  RH  049%=      5-min Rain = 0
KTAS 231947Z 03017G22KT 10/M01 A3027 RMK A01 T00951006  RH  049%=      5-min Rain = 0
KTAS 231948Z 03017KT 09/M01 A3027 RMK A01 T00931007  RH  050%=      5-min Rain = 0
KTAS 231949Z 02016G22KT 09/M01 A3027 RMK A01 T00931006  RH  050%=      5-min Rain = 0
KTAS 231950Z 01015KT 10/M00 A3027 RMK A01 T00961004  RH  050%=      5-min Rain = 0
KTAS 231951Z 02017KT 10/M01 A3027 RMK A01 T00951006  RH  049%=      5-min Rain = 0
KTAS 231952Z 01016KT 09/M01 A3027 RMK A01 T00931006  RH  050%=      5-min Rain = 0
KTAS 231953Z 02014KT 09/M01 A3027 RMK A01 T00941005  RH  050%=      5-min Rain = 0
KTAS 231954Z 02013KT 10/M00 A3027 RMK A01 T00961003  RH  050%=      5-min Rain = 0
KTAS 231955Z 00014KT 10/M00 A3027 RMK A01 T00981003  RH  049%=      5-min Rain = 0
KTAS 231956Z 00015KT 10/M01 A3027 RMK A01 T00981006  RH  048%=      5-min Rain = 0
KTAS 231957Z 01016KT 10/M01 A3027 RMK A01 T00961007  RH  049%=      5-min Rain = 0
KTAS 231958Z 02014KT 10/M01 A3027 RMK A01 T00961006  RH  049%=      5-min Rain = 0
KTAS 231959Z 03014KT 10/M01 A3027 RMK A01 T00971005  RH  049%=      5-min Rain = 0
KTAS 232000Z 03014KT 10/M01 A3027 RMK A01 T00961005  RH  049%=      5-min Rain = 0
KTAS 232001Z 04017KT 10/M01 A3027 RMK A01 T00961006  RH  049%=      5-min Rain = 0
KTAS 232002Z 02015KT 09/M01 A3027 RMK A01 T00941005  RH  050%=      5-min Rain = 0
KTAS 232003Z 04014G19KT 10/M00 A3027 RMK A01 T00981002  RH  050%=      5-min Rain = 0
KTAS 232004Z 04015KT 10/M01 A3027 RMK A01 T00971005  RH  049%=      5-min Rain = 0
KTAS 232005Z 02016KT 10/M01 A3027 RMK A01 T00961006  RH  049%=      5-min Rain = 0
KTAS 232006Z 03015KT 10/M01 A3027 RMK A01 T00951007  RH  049%=      5-min Rain = 0
KTAS 232007Z 03011KT 09/M01 A3027 RMK A01 T00941006  RH  049%=      5-min Rain = 0
KTAS 232008Z 02013KT 10/M00 A3027 RMK A01 T00971004  RH  049%=      5-min Rain = 0
KTAS 232009Z 02015KT 10/M01 A3027 RMK A01 T00991005  RH  048%=      5-min Rain = 0
KTAS 232010Z 02016KT 10/M01 A3027 RMK A01 T00981008  RH  048%=      5-min Rain = 0
KTAS 232011Z 02015KT 10/M01 A3027 RMK A01 T00951007  RH  049%=      5-min Rain = 0
KTAS 232012Z 04014KT 10/M01 A3027 RMK A01 T00961005  RH  049%=      5-min Rain = 0
KTAS 232013Z 02016KT 10/M01 A3026 RMK A01 T00991005  RH  048%=      5-min Rain = 0
KTAS 232014Z 03013KT 10/M01 A3027 RMK A01 T00991006  RH  048%=      5-min Rain = 0
KTAS 232015Z 03016KT 10/M01 A3026 RMK A01 T01001006  RH  048%=      5-min Rain = 0
KTAS 232016Z 04014KT 10/M01 A3026 RMK A01 T00991007  RH  048%=      5-min Rain = 0
KTAS 232017Z 03015KT 10/M01 A3026 RMK A01 T00981007  RH  048%=      5-min Rain = 0
KTAS 232018Z 02012KT 10/M01 A3027 RMK A01 T00991006  RH  048%=      5-min Rain = 0
KTAS 232019Z 01012KT 10/M01 A3026 RMK A01 T01001007  RH  047%=      5-min Rain = 0
KTAS 232020Z 02017KT 10/M01 A3026 RMK A01 T01001006  RH  047%=      5-min Rain = 0
KTAS 232021Z 01015KT 10/M01 A3026 RMK A01 T00991008  RH  047%=      5-min Rain = 0
KTAS 232022Z 02015KT 10/M01 A3026 RMK A01 T01011006  RH  048%=      5-min Rain = 0
KTAS 232023Z 02015KT 10/M01 A3026 RMK A01 T01011007  RH  047%=      5-min Rain = 0
KTAS 232024Z 36014KT 10/M01 A3026 RMK A01 T01001006  RH  048%=      5-min Rain = 0
KTAS 232025Z 01014KT 10/M01 A3026 RMK A01 T00991007  RH  048%=      5-min Rain = 0
KTAS 232026Z 02016KT 10/M01 A3026 RMK A01 T00981005  RH  048%=      5-min Rain = 0
KTAS 232027Z 02013KT 10/M01 A3027 RMK A01 T01001005  RH  048%=      5-min Rain = 0
KTAS 232028Z 03016KT 10/M01 A3026 RMK A01 T01021005  RH  047%=      5-min Rain = 0
KTAS 232029Z 03013KT 10/M01 A3026 RMK A01 T01001007  RH  048%=      5-min Rain = 0
KTAS 232030Z 02014KT 10/M01 A3026 RMK A01 T00981007  RH  048%=      5-min Rain = 0
KTAS 232031Z 03014KT 10/M01 A3026 RMK A01 T00981006  RH  048%=      5-min Rain = 0
KTAS 232032Z 03015KT 10/M00 A3026 RMK A01 T00991004  RH  049%=      5-min Rain = 0
KTAS 232033Z 02016KT 10/M01 A3026 RMK A01 T00991006  RH  048%=      5-min Rain = 0
KTAS 232034Z 01015KT 10/M01 A3026 RMK A01 T00971006  RH  049%=      5-min Rain = 0
KTAS 232035Z 02015KT 10/M01 A3026 RMK A01 T00971006  RH  049%=      5-min Rain = 0
KTAS 232036Z 02015KT 10/M01 A3026 RMK A01 T00971006  RH  049%=      5-min Rain = 0
KTAS 232037Z 02014KT 10/M01 A3026 RMK A01 T00971006  RH  049%=      5-min Rain = 0
KTAS 232038Z 03012KT 10/M01 A3026 RMK A01 T00981005  RH  049%=      5-min Rain = 0
KTAS 232039Z 02014KT 10/M01 A3026 RMK A01 T01001005  RH  048%=      5-min Rain = 0
KTAS 232040Z 01012KT 10/M01 A3026 RMK A01 T00971006  RH  048%=      5-min Rain = 0
KTAS 232041Z 02014KT 10/M00 A3026 RMK A01 T00991004  RH  049%=      5-min Rain = 0
KTAS 232042Z 04016KT 10/M01 A3026 RMK A01 T01001005  RH  048%=      5-min Rain = 0
KTAS 232043Z 02012KT 10/M01 A3026 RMK A01 T00991005  RH  048%=      5-min Rain = 0
KTAS 232044Z 04012KT 10/M01 A3026 RMK A01 T00991005  RH  048%=      5-min Rain = 0
KTAS 232045Z 03015KT 10/M01 A3026 RMK A01 T00981005  RH  049%=      5-min Rain = 0
KTAS 232046Z 02015KT 10/M00 A3026 RMK A01 T01001004  RH  048%=      5-min Rain = 0
KTAS 232047Z 02015KT 10/M00 A3026 RMK A01 T01001004  RH  048%=      5-min Rain = 0
KTAS 232048Z 02013KT 10/M01 A3026 RMK A01 T00991005  RH  048%=      5-min Rain = 0
KTAS 232049Z 02014KT 10/M00 A3026 RMK A01 T00991004  RH  049%=      5-min Rain = 0
KTAS 232050Z 02015KT 10/M01 A3026 RMK A01 T00991005  RH  048%=      5-min Rain = 0
KTAS 232051Z 02013KT 10/M00 A3026 RMK A01 T00991004  RH  049%=      5-min Rain = 0
KTAS 232052Z 02015KT 10/M01 A3026 RMK A01 T00991006  RH  048%=      5-min Rain = 0
KTAS 232053Z 02016KT 10/M01 A3026 RMK A01 T00971005  RH  049%=      5-min Rain = 0
KTAS 232054Z 01013KT 10/M00 A3026 RMK A01 T00981004  RH  049%=      5-min Rain = 0
KTAS 232055Z 00014KT 10/M00 A3026 RMK A01 T01011003  RH  049%=      5-min Rain = 0
KTAS 232056Z 01015KT 10/M00 A3026 RMK A01 T01011004  RH  048%=      5-min Rain = 0
KTAS 232057Z 01014KT 10/M01 A3026 RMK A01 T01011005  RH  048%=      5-min Rain = 0
KTAS 232058Z 03014KT 10/M01 A3026 RMK A01 T01011005  RH  048%=      5-min Rain = 0
KTAS 232059Z 04013KT 10/M01 A3026 RMK A01 T00991006  RH  048%=      5-min Rain = 0
KTAS 232100Z 04015KT 10/M01 A3026 RMK A01 T00981005  RH  048%=      5-min Rain = 0
KTAS 232101Z 03015KT 10/M01 A3026 RMK A01 T00981005  RH  048%=      5-min Rain = 0
KTAS 232102Z 03014KT 10/M00 A3026 RMK A01 T00991004  RH  049%=      5-min Rain = 0
KTAS 232103Z 01014KT 10/M00 A3026 RMK A01 T01001003  RH  049%=      5-min Rain = 0
KTAS 232104Z 02015KT 10/M00 A3026 RMK A01 T01001003  RH  049%=      5-min Rain = 0
KTAS 232105Z 02015KT 10/M00 A3026 RMK A01 T01001003  RH  049%=      5-min Rain = 0
KTAS 232106Z 02014KT 10/M00 A3026 RMK A01 T00991003  RH  049%=      5-min Rain = 0
KTAS 232107Z 02012KT 10/M00 A3026 RMK A01 T00991003  RH  049%=      5-min Rain = 0
KTAS 232108Z 02013KT 10/M00 A3025 RMK A01 T00991003  RH  049%=      5-min Rain = 0
KTAS 232109Z 01018KT 10/M00 A3025 RMK A01 T01001003  RH  049%=      5-min Rain = 0
KTAS 232110Z 03014KT 10/M00 A3025 RMK A01 T00981004  RH  049%=      5-min Rain = 0
KTAS 232111Z 02013KT 10/M00 A3025 RMK A01 T01011002  RH  049%=      5-min Rain = 0
KTAS 232112Z 02015KT 10/M00 A3025 RMK A01 T01011003  RH  048%=      5-min Rain = 0
KTAS 232113Z 01015KT 10/M00 A3025 RMK A01 T00991003  RH  049%=      5-min Rain = 0
KTAS 232114Z 03015KT 10/M00 A3025 RMK A01 T00981002  RH  050%=      5-min Rain = 0
KTAS 232115Z 03014KT 10/M00 A3025 RMK A01 T00981003  RH  049%=      5-min Rain = 0
KTAS 232116Z 02014KT 10/M00 A3026 RMK A01 T00981003  RH  049%=      5-min Rain = 0
KTAS 232117Z 02013KT 10/M00 A3025 RMK A01 T00981004  RH  049%=      5-min Rain = 0
KTAS 232118Z 03012KT 10/M00 A3025 RMK A01 T00971004  RH  049%=      5-min Rain = 0
KTAS 232119Z 02014KT 10/M00 A3025 RMK A01 T00991002  RH  049%=      5-min Rain = 0
KTAS 232120Z 02016KT 10/M00 A3025 RMK A01 T01001003  RH  049%=      5-min Rain = 0
KTAS 232121Z 03013KT 10/M00 A3025 RMK A01 T00991003  RH  049%=      5-min Rain = 0
KTAS 232122Z 03015KT 10/M00 A3025 RMK A01 T00981004  RH  049%=      5-min Rain = 0
KTAS 232123Z 03014KT 10/M00 A3025 RMK A01 T00961004  RH  050%=      5-min Rain = 0
KTAS 232124Z 03016KT 10/M00 A3025 RMK A01 T00951004  RH  050%=      5-min Rain = 0
KTAS 232125Z 03017KT 10/M00 A3025 RMK A01 T00951004  RH  050%=      5-min Rain = 0
KTAS 232126Z 03016KT 10/M00 A3025 RMK A01 T00961003  RH  050%=      5-min Rain = 0
KTAS 232127Z 03014KT 10/M00 A3025 RMK A01 T00961003  RH  050%=      5-min Rain = 0
KTAS 232128Z 03013KT 10/M00 A3025 RMK A01 T00971003  RH  050%=      5-min Rain = 0
KTAS 232129Z 03015KT 10/M00 A3025 RMK A01 T00971003  RH  050%=      5-min Rain = 0
KTAS 232130Z 03014G20KT 10/M00 A3025 RMK A01 T00971002  RH  050%=      5-min Rain = 0
KTAS 232131Z 02017KT 10/M00 A3025 RMK A01 T00971003  RH  050%=      5-min Rain = 0
KTAS 232132Z 02014KT 10/M00 A3025 RMK A01 T00951004  RH  050%=      5-min Rain = 0
KTAS 232133Z 02012KT 09/M00 A3025 RMK A01 T00941003  RH  051%=      5-min Rain = 0
KTAS 232134Z 01014KT 10/M00 A3025 RMK A01 T00951003  RH  051%=      5-min Rain = 0
KTAS 232135Z 02014KT 10/M00 A3025 RMK A01 T00951003  RH  051%=      5-min Rain = 0
KTAS 232136Z 01012KT 10/M00 A3025 RMK A01 T00961002  RH  050%=      5-min Rain = 0
KTAS 232137Z 02012KT 10/M00 A3025 RMK A01 T00971002  RH  050%=      5-min Rain = 0
KTAS 232138Z 04011KT 10/M00 A3025 RMK A01 T00971002  RH  050%=      5-min Rain = 0
KTAS 232139Z 04010KT 10/M00 A3025 RMK A01 T00971003  RH  050%=      5-min Rain = 0
KTAS 232140Z 04009KT 10/M00 A3025 RMK A01 T01001001  RH  049%=      5-min Rain = 0
KTAS 232141Z 04013KT 10/M00 A3025 RMK A01 T01001002  RH  049%=      5-min Rain = 0
KTAS 232142Z 03016KT 10/M00 A3025 RMK A01 T01001002  RH  049%=      5-min Rain = 0
KTAS 232143Z 02013G19KT 10/M00 A3025 RMK A01 T00991003  RH  049%=      5-min Rain = 0
KTAS 232144Z 03015KT 10/M00 A3025 RMK A01 T00981002  RH  050%=      5-min Rain = 0
KTAS 232145Z 03014KT 10/M00 A3025 RMK A01 T00971002  RH  050%=      5-min Rain = 0
KTAS 232146Z 04010KT 10/M00 A3025 RMK A01 T00971002  RH  050%=      5-min Rain = 0
KTAS 232147Z 04012KT 10/M00 A3025 RMK A01 T00971002  RH  050%=      5-min Rain = 0
KTAS 232148Z 02011KT 10/00 A3026 RMK A01 T009700-0  RH  051%=      5-min Rain = 0
KTAS 232149Z 03013KT 10/00 A3026 RMK A01 T009900-0  RH  050%=      5-min Rain = 0
KTAS 232150Z 02012KT 10/M00 A3026 RMK A01 T00991002  RH  050%=      5-min Rain = 0
KTAS 232151Z 02015KT 10/M00 A3026 RMK A01 T00971002  RH  050%=      5-min Rain = 0
KTAS 232152Z 02016KT 10/M00 A3026 RMK A01 T00961002  RH  050%=      5-min Rain = 0
KTAS 232153Z 03014KT 09/M00 A3026 RMK A01 T00941003  RH  051%=      5-min Rain = 0
KTAS 232154Z 03013KT 09/M00 A3026 RMK A01 T00941003  RH  051%=      5-min Rain = 0
KTAS 232155Z 03012KT 09/M00 A3026 RMK A01 T00941004  RH  051%=      5-min Rain = 0
KTAS 232156Z 02013KT 09/M00 A3026 RMK A01 T00931003  RH  051%=      5-min Rain = 0
KTAS 232157Z 02013KT 10/M00 A3026 RMK A01 T00951003  RH  051%=      5-min Rain = 0
KTAS 232158Z 03013G18KT 10/M00 A3026 RMK A01 T00961003  RH  050%=      5-min Rain = 0
KTAS 232159Z 02014KT 10/M00 A3026 RMK A01 T00961003  RH  050%=      5-min Rain = 0
KTAS 232200Z 03013KT 10/M00 A3026 RMK A01 T00961003  RH  050%=      5-min Rain = 0
KTAS 232201Z 02013KT 10/M00 A3026 RMK A01 T00971002  RH  050%=      5-min Rain = 0
KTAS 232202Z 02013KT 10/M00 A3026 RMK A01 T00961003  RH  050%=      5-min Rain = 0
KTAS 232203Z 02013KT 10/M00 A3026 RMK A01 T00971003  RH  050%=      5-min Rain = 0
KTAS 232204Z 02011KT 10/M00 A3026 RMK A01 T00961004  RH  050%=      5-min Rain = 0
KTAS 232205Z 02013KT 10/M00 A3026 RMK A01 T00951003  RH  050%=      5-min Rain = 0
KTAS 232206Z 02015KT 10/M00 A3026 RMK A01 T00951003  RH  050%=      5-min Rain = 0
KTAS 232207Z 01016KT 10/M00 A3025 RMK A01 T00951004  RH  050%=      5-min Rain = 0
KTAS 232208Z 02016KT 09/M00 A3026 RMK A01 T00941004  RH  050%=      5-min Rain = 0
KTAS 232209Z 01013KT 09/M00 A3026 RMK A01 T00941004  RH  050%=      5-min Rain = 0
KTAS 232210Z 02012KT 10/M00 A3026 RMK A01 T00951004  RH  050%=      5-min Rain = 0
KTAS 232211Z 01013KT 10/M00 A3026 RMK A01 T00951003  RH  050%=      5-min Rain = 0
KTAS 232212Z 02014KT 10/M00 A3026 RMK A01 T00961003  RH  050%=      5-min Rain = 0
KTAS 232213Z 02013KT 10/M00 A3026 RMK A01 T00961003  RH  050%=      5-min Rain = 0
KTAS 232214Z 02012KT 10/M00 A3026 RMK A01 T00951004  RH  050%=      5-min Rain = 0
KTAS 232215Z 02013KT 10/M00 A3025 RMK A01 T00961003  RH  050%=      5-min Rain = 0
KTAS 232216Z 02012KT 10/M00 A3025 RMK A01 T00951003  RH  050%=      5-min Rain = 0
KTAS 232217Z 02015KT 10/M00 A3025 RMK A01 T00961002  RH  050%=      5-min Rain = 0
KTAS 232218Z 03015KT 10/M00 A3025 RMK A01 T00951003  RH  050%=      5-min Rain = 0
KTAS 232219Z 03013KT 10/M00 A3025 RMK A01 T00951003  RH  050%=      5-min Rain = 0
KTAS 232220Z 03015KT 10/M00 A3025 RMK A01 T00951002  RH  050%=      5-min Rain = 0
KTAS 232221Z 02014KT 09/M00 A3025 RMK A01 T00941004  RH  051%=      5-min Rain = 0
KTAS 232222Z 02010KT 09/M00 A3025 RMK A01 T00941002  RH  051%=      5-min Rain = 0
KTAS 232223Z 03012KT 10/M00 A3025 RMK A01 T00951002  RH  051%=      5-min Rain = 0
KTAS 232224Z 04012KT 10/M00 A3025 RMK A01 T00951003  RH  051%=      5-min Rain = 0
KTAS 232225Z 04012KT 09/M00 A3025 RMK A01 T00941003  RH  051%=      5-min Rain = 0
KTAS 232226Z 04014KT 09/M00 A3025 RMK A01 T00941003  RH  051%=      5-min Rain = 0
KTAS 232227Z 04012KT 09/M00 A3026 RMK A01 T00921004  RH  051%=      5-min Rain = 0
KTAS 232228Z 04010KT 09/M00 A3026 RMK A01 T00921003  RH  051%=      5-min Rain = 0
KTAS 232229Z 04014KT 09/M00 A3025 RMK A01 T00921003  RH  051%=      5-min Rain = 0
KTAS 232230Z 04014KT 09/M00 A3025 RMK A01 T00921003  RH  051%=      5-min Rain = 0
KTAS 232231Z 04012KT 09/M00 A3026 RMK A01 T00921004  RH  051%=      5-min Rain = 0
KTAS 232232Z 03013KT 09/M00 A3026 RMK A01 T00921004  RH  051%=      5-min Rain = 0
KTAS 232233Z 04011KT 09/M00 A3026 RMK A01 T00921004  RH  051%=      5-min Rain = 0
KTAS 232234Z 03013KT 09/M00 A3026 RMK A01 T00921004  RH  051%=      5-min Rain = 0
KTAS 232235Z 03015KT 09/M00 A3026 RMK A01 T00941003  RH  051%=      5-min Rain = 0
KTAS 232236Z 03013KT 09/M00 A3026 RMK A01 T00931004  RH  051%=      5-min Rain = 0
KTAS 232237Z 05010KT 09/M00 A3026 RMK A01 T00931003  RH  051%=      5-min Rain = 0
KTAS 232238Z 04010KT 09/M00 A3026 RMK A01 T00931003  RH  051%=      5-min Rain = 0
KTAS 232239Z 05012KT 09/M00 A3026 RMK A01 T00931002  RH  051%=      5-min Rain = 0
KTAS 232240Z 04012KT 09/M00 A3026 RMK A01 T00931003  RH  051%=      5-min Rain = 0
KTAS 232241Z 03012KT 09/M00 A3026 RMK A01 T00921002  RH  052%=      5-min Rain = 0
KTAS 232242Z 02013KT 09/M00 A3026 RMK A01 T00931002  RH  051%=      5-min Rain = 0
KTAS 232243Z 03012KT 09/M00 A3026 RMK A01 T00931002  RH  051%=      5-min Rain = 0
KTAS 232244Z 03012KT 09/M00 A3026 RMK A01 T00931003  RH  051%=      5-min Rain = 0
KTAS 232245Z 04013KT 09/M00 A3026 RMK A01 T00921003  RH  051%=      5-min Rain = 0
KTAS 232246Z 03011KT 09/M00 A3026 RMK A01 T00921003  RH  051%=      5-min Rain = 0
KTAS 232247Z 02012KT 09/M00 A3026 RMK A01 T00921003  RH  051%=      5-min Rain = 0
KTAS 232248Z 03013KT 09/M00 A3026 RMK A01 T00921003  RH  051%=      5-min Rain = 0
KTAS 232249Z 03013KT 09/M00 A3026 RMK A01 T00911004  RH  051%=      5-min Rain = 0
KTAS 232250Z 02013KT 09/M00 A3026 RMK A01 T00921003  RH  051%=      5-min Rain = 0
KTAS 232251Z 02011KT 09/M00 A3026 RMK A01 T00911004  RH  051%=      5-min Rain = 0
KTAS 232252Z 03010KT 09/M00 A3026 RMK A01 T00911003  RH  052%=      5-min Rain = 0
KTAS 232253Z 03011KT 09/M00 A3026 RMK A01 T00921003  RH  051%=      5-min Rain = 0
KTAS 232254Z 04010KT 09/M00 A3026 RMK A01 T00921004  RH  051%=      5-min Rain = 0
KTAS 232255Z 04010KT 09/M00 A3026 RMK A01 T00921003  RH  051%=      5-min Rain = 0
KTAS 232256Z 05010KT 09/M00 A3026 RMK A01 T00921004  RH  051%=      5-min Rain = 0
KTAS 232257Z 05010KT 09/M00 A3026 RMK A01 T00921003  RH  051%=      5-min Rain = 0
KTAS 232258Z 03012KT 09/M00 A3026 RMK A01 T00921003  RH  051%=      5-min Rain = 0
KTAS 232259Z 03013KT 09/M00 A3026 RMK A01 T00911004  RH  051%=      5-min Rain = 0
KTAS 232300Z 03012KT 09/M00 A3026 RMK A01 T00911003  RH  052%=      5-min Rain = 0
KTAS 232301Z 04012KT 09/M00 A3026 RMK A01 T00911003  RH  052%=      5-min Rain = 0
KTAS 232302Z 03011G16KT 09/M00 A3026 RMK A01 T00911003  RH  052%=      5-min Rain = 0
KTAS 232303Z 03013KT 09/M00 A3026 RMK A01 T00921004  RH  051%=      5-min Rain = 0
KTAS 232304Z 02013KT 09/M00 A3026 RMK A01 T00911004  RH  051%=      5-min Rain = 0
KTAS 232305Z 03012KT 09/M01 A3026 RMK A01 T00911005  RH  051%=      5-min Rain = 0
KTAS 232306Z 02012KT 09/M01 A3026 RMK A01 T00901005  RH  051%=      5-min Rain = 0
KTAS 232307Z 03012KT 09/M01 A3026 RMK A01 T00901005  RH  051%=      5-min Rain = 0
KTAS 232308Z 04011KT 09/M01 A3026 RMK A01 T00901005  RH  051%=      5-min Rain = 0
KTAS 232309Z 04011KT 09/M00 A3026 RMK A01 T00901004  RH  052%=      5-min Rain = 0
KTAS 232310Z 04013KT 09/M00 A3026 RMK A01 T00901004  RH  052%=      5-min Rain = 0
KTAS 232311Z 04010KT 09/M01 A3026 RMK A01 T00891005  RH  052%=      5-min Rain = 0
KTAS 232312Z 05007KT 09/M00 A3026 RMK A01 T00891004  RH  052%=      5-min Rain = 0
KTAS 232313Z 05010G15KT 09/M00 A3026 RMK A01 T00901003  RH  052%=      5-min Rain = 0
KTAS 232314Z 05011KT 09/M01 A3026 RMK A01 T00901005  RH  052%=      5-min Rain = 0
KTAS 232315Z 04012KT 09/M01 A3026 RMK A01 T00891005  RH  052%=      5-min Rain = 0
KTAS 232316Z 04011KT 09/M01 A3026 RMK A01 T00891005  RH  052%=      5-min Rain = 0
KTAS 232317Z 03011KT 09/M00 A3026 RMK A01 T00891004  RH  052%=      5-min Rain = 0
KTAS 232318Z 03012KT 09/M00 A3026 RMK A01 T00891004  RH  052%=      5-min Rain = 0
KTAS 232319Z 04012KT 09/M00 A3026 RMK A01 T00891004  RH  052%=      5-min Rain = 0
KTAS 232320Z 04013KT 09/M01 A3026 RMK A01 T00881005  RH  052%=      5-min Rain = 0
KTAS 232321Z 04010KT 09/M01 A3026 RMK A01 T00881005  RH  052%=      5-min Rain = 0
KTAS 232322Z 04010KT 09/M01 A3026 RMK A01 T00881005  RH  052%=      5-min Rain = 0
KTAS 232323Z 04010KT 09/M01 A3026 RMK A01 T00881005  RH  052%=      5-min Rain = 0
KTAS 232324Z 04008KT 09/M01 A3026 RMK A01 T00881005  RH  052%=      5-min Rain = 0
KTAS 232325Z 04010KT 09/M01 A3026 RMK A01 T00881005  RH  052%=      5-min Rain = 0
KTAS 232326Z 03012G17KT 09/M01 A3026 RMK A01 T00881005  RH  052%=      5-min Rain = 0
KTAS 232327Z 04013KT 09/M01 A3026 RMK A01 T00881005  RH  052%=      5-min Rain = 0
KTAS 232328Z 05013KT 09/M01 A3026 RMK A01 T00871005  RH  052%=      5-min Rain = 0
KTAS 232329Z 04010KT 09/M01 A3026 RMK A01 T00871005  RH  052%=      5-min Rain = 0
KTAS 232330Z 05010KT 09/M00 A3026 RMK A01 T00881004  RH  052%=      5-min Rain = 0
KTAS 232331Z 04010KT 09/M00 A3026 RMK A01 T00881004  RH  052%=      5-min Rain = 0
KTAS 232332Z 03010KT 09/M01 A3026 RMK A01 T00881005  RH  052%=      5-min Rain = 0
KTAS 232333Z 03011KT 09/M01 A3026 RMK A01 T00881005  RH  052%=      5-min Rain = 0
KTAS 232334Z 03009KT 09/M01 A3026 RMK A01 T00881006  RH  052%=      5-min Rain = 0
KTAS 232335Z 03013KT 09/M01 A3026 RMK A01 T00871006  RH  052%=      5-min Rain = 0
KTAS 232336Z 04011KT 09/M01 A3027 RMK A01 T00871005  RH  052%=      5-min Rain = 0
KTAS 232337Z 04009KT 09/M01 A3027 RMK A01 T00871005  RH  052%=      5-min Rain = 0
KTAS 232338Z 04012KT 09/M01 A3026 RMK A01 T00871005  RH  052%=      5-min Rain = 0
KTAS 232339Z 03013KT 09/M01 A3026 RMK A01 T00861006  RH  052%=      5-min Rain = 0
KTAS 232340Z 04011KT 09/M01 A3026 RMK A01 T00861005  RH  053%=      5-min Rain = 0
KTAS 232341Z 04013KT 09/M01 A3026 RMK A01 T00861005  RH  053%=      5-min Rain = 0
KTAS 232342Z 05011KT 09/M01 A3026 RMK A01 T00851006  RH  053%=      5-min Rain = 0
KTAS 232343Z 04011KT 09/M01 A3026 RMK A01 T00851005  RH  053%=      5-min Rain = 0
KTAS 232344Z 04011KT 09/M01 A3027 RMK A01 T00861005  RH  053%=      5-min Rain = 0
KTAS 232345Z 03010KT 09/M01 A3027 RMK A01 T00861005  RH  053%=      5-min Rain = 0
KTAS 232346Z 03009KT 09/M01 A3027 RMK A01 T00861005  RH  053%=      5-min Rain = 0
KTAS 232347Z 03011KT 09/M01 A3027 RMK A01 T00861005  RH  053%=      5-min Rain = 0
KTAS 232348Z 03013KT 09/M01 A3027 RMK A01 T00851006  RH  053%=      5-min Rain = 0
KTAS 232349Z 03012KT 09/M01 A3027 RMK A01 T00851006  RH  053%=      5-min Rain = 0
KTAS 232350Z 04009KT 09/M01 A3027 RMK A01 T00851006  RH  053%=      5-min Rain = 0
KTAS 232351Z 04008KT 09/M01 A3027 RMK A01 T00851005  RH  053%=      5-min Rain = 0
KTAS 232352Z 04011KT 09/M01 A3027 RMK A01 T00861005  RH  053%=      5-min Rain = 0
KTAS 232353Z 03010KT 09/M01 A3027 RMK A01 T00851006  RH  053%=      5-min Rain = 0
KTAS 232354Z 04010KT 09/M01 A3027 RMK A01 T00851006  RH  053%=      5-min Rain = 0
KTAS 232355Z 03008KT 09/M01 A3027 RMK A01 T00851006  RH  053%=      5-min Rain = 0
KTAS 232356Z 04010KT 09/M01 A3027 RMK A01 T00851006  RH  053%=      5-min Rain = 0
KTAS 232357Z 05009KT 09/M01 A3027 RMK A01 T00851006  RH  053%=      5-min Rain = 0
KTAS 232358Z 06009KT 09/M01 A3027 RMK A01 T00851006  RH  053%=      5-min Rain = 0
KTAS 232359Z 06010KT 08/M01 A3027 RMK A01 T00841007  RH  053%=      5-min Rain = 0
KTAS 240000Z 06010KT 08/M01 A3027 RMK A01 T00841006  RH  053%=      5-min Rain = 0
KTAS 240001Z 06010KT 08/M01 A3027 RMK A01 T00841006  RH  053%=      5-min Rain = 0
KTAS 240002Z 04009KT 08/M01 A3027 RMK A01 T00841006  RH  053%=      5-min Rain = 0
KTAS 240003Z 04009KT 08/M01 A3026 RMK A01 T00841006  RH  053%=      5-min Rain = 0
KTAS 240004Z 04009KT 08/M01 A3026 RMK A01 T00841006  RH  053%=      5-min Rain = 0
KTAS 240005Z 05010KT 09/M01 A3026 RMK A01 T00851006  RH  053%=      5-min Rain = 0
KTAS 240006Z 05011KT 08/M01 A3026 RMK A01 T00841007  RH  053%=      5-min Rain = 0
KTAS 240007Z 05010KT 08/M01 A3026 RMK A01 T00841006  RH  053%=      5-min Rain = 0
KTAS 240008Z 05010KT 08/M01 A3026 RMK A01 T00841006  RH  053%=      5-min Rain = 0
KTAS 240009Z 04010KT 08/M01 A3027 RMK A01 T00831007  RH  053%=      5-min Rain = 0
KTAS 240010Z 05011KT 08/M01 A3027 RMK A01 T00831007  RH  053%=      5-min Rain = 0
KTAS 240011Z 05010KT 08/M01 A3027 RMK A01 T00831007  RH  053%=      5-min Rain = 0
KTAS 240012Z 05010KT 08/M01 A3027 RMK A01 T00831006  RH  053%=      5-min Rain = 0
KTAS 240013Z 04010KT 08/M01 A3027 RMK A01 T00831006  RH  053%=      5-min Rain = 0
KTAS 240014Z 04009KT 08/M01 A3027 RMK A01 T00831006  RH  053%=      5-min Rain = 0
KTAS 240015Z 04009KT 08/M01 A3027 RMK A01 T00831006  RH  053%=      5-min Rain = 0
KTAS 240016Z 04009KT 08/M01 A3027 RMK A01 T00841006  RH  053%=      5-min Rain = 0
KTAS 240017Z 04009KT 08/M01 A3027 RMK A01 T00841006  RH  053%=      5-min Rain = 0
KTAS 240018Z 04009KT 08/M01 A3027 RMK A01 T00841007  RH  053%=      5-min Rain = 0
KTAS 240019Z 03009KT 08/M01 A3027 RMK A01 T00831007  RH  053%=      5-min Rain = 0
KTAS 240020Z 04008KT 08/M01 A3027 RMK A01 T00831007  RH  053%=      5-min Rain = 0
KTAS 240021Z 05007KT 08/M01 A3027 RMK A01 T00831007  RH  053%=      5-min Rain = 0
KTAS 240022Z 05010KT 08/M01 A3027 RMK A01 T00831007  RH  053%=      5-min Rain = 0
KTAS 240023Z 05010KT 08/M01 A3027 RMK A01 T00831007  RH  053%=      5-min Rain = 0
KTAS 240024Z 05009KT 08/M01 A3027 RMK A01 T00831007  RH  053%=      5-min Rain = 0
KTAS 240025Z 05009KT 08/M01 A3027 RMK A01 T00831007  RH  053%=      5-min Rain = 0
KTAS 240026Z 04009KT 08/M01 A3027 RMK A01 T00831007  RH  053%=      5-min Rain = 0
KTAS 240027Z 05007KT 08/M01 A3027 RMK A01 T00831007  RH  053%=      5-min Rain = 0
KTAS 240028Z 05008KT 08/M01 A3027 RMK A01 T00831007  RH  053%=      5-min Rain = 0
KTAS 240029Z 04010KT 08/M01 A3027 RMK A01 T00831007  RH  053%=      5-min Rain = 0
KTAS 240030Z 04010KT 08/M01 A3027 RMK A01 T00831007  RH  053%=      5-min Rain = 0
KTAS 240031Z 04011KT 08/M01 A3027 RMK A01 T00831007  RH  053%=      5-min Rain = 0
KTAS 240032Z 05010KT 08/M01 A3027 RMK A01 T00831007  RH  053%=      5-min Rain = 0
KTAS 240033Z 05009KT 08/M01 A3027 RMK A01 T00831007  RH  053%=      5-min Rain = 0
KTAS 240034Z 04010KT 08/M01 A3027 RMK A01 T00831007  RH  053%=      5-min Rain = 0
KTAS 240035Z 04009KT 08/M01 A3027 RMK A01 T00821007  RH  053%=      5-min Rain = 0
KTAS 240036Z 04008KT 08/M01 A3027 RMK A01 T00821007  RH  053%=      5-min Rain = 0
KTAS 240037Z 05006KT 08/M01 A3027 RMK A01 T00821007  RH  053%=      5-min Rain = 0
KTAS 240038Z 05008KT 08/M01 A3027 RMK A01 T00831007  RH  053%=      5-min Rain = 0
KTAS 240039Z 06008KT 08/M01 A3027 RMK A01 T00831007  RH  053%=      5-min Rain = 0
KTAS 240040Z 06010KT 08/M01 A3027 RMK A01 T00821007  RH  053%=      5-min Rain = 0
KTAS 240041Z 05009KT 08/M01 A3028 RMK A01 T00821007  RH  053%=      5-min Rain = 0
KTAS 240042Z 04007KT 08/M01 A3028 RMK A01 T00821007  RH  053%=      5-min Rain = 0
KTAS 240043Z 04007KT 08/M01 A3028 RMK A01 T00831006  RH  053%=      5-min Rain = 0
KTAS 240044Z 05008KT 08/M01 A3028 RMK A01 T00831007  RH  053%=      5-min Rain = 0
KTAS 240045Z 05009KT 08/M01 A3028 RMK A01 T00831007  RH  053%=      5-min Rain = 0
KTAS 240046Z 04008KT 08/M01 A3028 RMK A01 T00831007  RH  053%=      5-min Rain = 0
KTAS 240047Z 05008KT 08/M01 A3028 RMK A01 T00831007  RH  053%=      5-min Rain = 0
KTAS 240048Z 04006KT 08/M01 A3028 RMK A01 T00831007  RH  053%=      5-min Rain = 0
KTAS 240049Z 05008KT 08/M01 A3028 RMK A01 T00831007  RH  053%=      5-min Rain = 0
KTAS 240050Z 05008KT 08/M01 A3028 RMK A01 T00831007  RH  053%=      5-min Rain = 0
KTAS 240051Z 05009KT 08/M01 A3028 RMK A01 T00831007  RH  053%=      5-min Rain = 0
KTAS 240052Z 05008KT 08/M01 A3028 RMK A01 T00821008  RH  053%=      5-min Rain = 0
KTAS 240053Z 05006KT 08/M01 A3028 RMK A01 T00821008  RH  053%=      5-min Rain = 0
KTAS 240054Z 04008KT 08/M01 A3028 RMK A01 T00821007  RH  053%=      5-min Rain = 0
KTAS 240055Z 04009KT 08/M01 A3028 RMK A01 T00821007  RH  053%=      5-min Rain = 0
KTAS 240056Z 04010KT 08/M01 A3028 RMK A01 T00821008  RH  053%=      5-min Rain = 0
KTAS 240057Z 05008KT 08/M01 A3028 RMK A01 T00821008  RH  053%=      5-min Rain = 0
KTAS 240058Z 05009KT 08/M01 A3028 RMK A01 T00811008  RH  053%=      5-min Rain = 0
KTAS 240059Z 05009KT 08/M01 A3028 RMK A01 T00811008  RH  053%=      5-min Rain = 0
KTAS 240100Z 05008KT 08/M01 A3028 RMK A01 T00811008  RH  053%=      5-min Rain = 0
KTAS 240101Z 05010KT 08/M01 A3028 RMK A01 T00811008  RH  053%=      5-min Rain = 0
KTAS 240102Z 05007KT 08/M01 A3028 RMK A01 T00811008  RH  053%=      5-min Rain = 0
KTAS 240103Z 05008KT 08/M01 A3028 RMK A01 T00811008  RH  053%=      5-min Rain = 0
KTAS 240104Z 05008KT 08/M01 A3028 RMK A01 T00811008  RH  053%=      5-min Rain = 0
KTAS 240105Z 05007KT 08/M01 A3028 RMK A01 T00811008  RH  053%=      5-min Rain = 0
KTAS 240106Z 06010KT 08/M01 A3028 RMK A01 T00811008  RH  053%=      5-min Rain = 0
KTAS 240107Z 05009KT 08/M01 A3028 RMK A01 T00811008  RH  053%=      5-min Rain = 0
KTAS 240108Z 05009KT 08/M01 A3028 RMK A01 T00811008  RH  053%=      5-min Rain = 0
KTAS 240109Z 05010KT 08/M01 A3028 RMK A01 T00811008  RH  053%=      5-min Rain = 0
KTAS 240110Z 04009KT 08/M01 A3028 RMK A01 T00811009  RH  053%=      5-min Rain = 0
KTAS 240111Z 05009KT 08/M01 A3028 RMK A01 T00811008  RH  053%=      5-min Rain = 0
KTAS 240112Z 05008KT 08/M01 A3028 RMK A01 T00811009  RH  053%=      5-min Rain = 0
KTAS 240113Z 05009KT 08/M01 A3028 RMK A01 T00811009  RH  053%=      5-min Rain = 0
KTAS 240114Z 06007KT 08/M01 A3028 RMK A01 T00811009  RH  053%=      5-min Rain = 0
KTAS 240115Z 06007KT 08/M01 A3028 RMK A01 T00811009  RH  053%=      5-min Rain = 0
KTAS 240116Z 06008KT 08/M01 A3028 RMK A01 T00811008  RH  053%=      5-min Rain = 0
KTAS 240117Z 05008KT 08/M01 A3028 RMK A01 T00811008  RH  053%=      5-min Rain = 0
KTAS 240118Z 06007KT 08/M01 A3028 RMK A01 T00811008  RH  053%=      5-min Rain = 0
KTAS 240119Z 06009KT 08/M01 A3028 RMK A01 T00811009  RH  053%=      5-min Rain = 0
KTAS 240120Z 06009KT 08/M01 A3029 RMK A01 T00811009  RH  053%=      5-min Rain = 0
KTAS 240121Z 06009KT 08/M01 A3029 RMK A01 T00811009  RH  053%=      5-min Rain = 0
KTAS 240122Z 05007KT 08/M01 A3029 RMK A01 T00811009  RH  053%=      5-min Rain = 0
KTAS 240123Z 05007KT 08/M01 A3029 RMK A01 T00811009  RH  053%=      5-min Rain = 0
KTAS 240124Z 06005KT 08/M01 A3029 RMK A01 T00811009  RH  053%=      5-min Rain = 0
KTAS 240125Z 06006KT 08/M01 A3029 RMK A01 T00811009  RH  053%=      5-min Rain = 0
KTAS 240126Z 06006KT 08/M01 A3029 RMK A01 T00811009  RH  053%=      5-min Rain = 0
KTAS 240127Z 05006KT 08/M01 A3029 RMK A01 T00811009  RH  053%=      5-min Rain = 0
KTAS 240128Z 04009KT 08/M01 A3029 RMK A01 T00811008  RH  053%=      5-min Rain = 0
KTAS 240129Z 05009KT 08/M01 A3029 RMK A01 T00811009  RH  053%=      5-min Rain = 0
KTAS 240130Z 05008KT 08/M01 A3029 RMK A01 T00811009  RH  053%=      5-min Rain = 0
KTAS 240131Z 04009KT 08/M01 A3029 RMK A01 T00811010  RH  053%=      5-min Rain = 0
KTAS 240132Z 05008KT 08/M01 A3029 RMK A01 T00811010  RH  053%=      5-min Rain = 0
KTAS 240133Z 04010KT 08/M01 A3029 RMK A01 T00811010  RH  053%=      5-min Rain = 0
KTAS 240134Z 05009KT 08/M01 A3029 RMK A01 T00811010  RH  053%=      5-min Rain = 0
KTAS 240135Z 05009KT 08/M01 A3029 RMK A01 T00801010  RH  053%=      5-min Rain = 0
KTAS 240136Z 05008KT 08/M01 A3029 RMK A01 T00801010  RH  053%=      5-min Rain = 0
KTAS 240137Z 05008KT 08/M01 A3029 RMK A01 T00801010  RH  053%=      5-min Rain = 0
KTAS 240138Z 05009KT 08/M01 A3029 RMK A01 T00801010  RH  053%=      5-min Rain = 0
KTAS 240139Z 06007KT 08/M01 A3029 RMK A01 T00801010  RH  053%=      5-min Rain = 0
KTAS 240140Z 05008KT 08/M01 A3029 RMK A01 T00801010  RH  053%=      5-min Rain = 0
KTAS 240141Z 05009KT 08/M01 A3029 RMK A01 T00801010  RH  053%=      5-min Rain = 0
KTAS 240142Z 04008KT 08/M01 A3029 RMK A01 T00801010  RH  053%=      5-min Rain = 0
KTAS 240143Z 05008KT 08/M01 A3029 RMK A01 T00801010  RH  053%=      5-min Rain = 0
KTAS 240144Z 06006KT 08/M01 A3029 RMK A01 T00801010  RH  053%=      5-min Rain = 0
KTAS 240145Z 06008KT 08/M01 A3029 RMK A01 T00801010  RH  053%=      5-min Rain = 0
KTAS 240146Z 06008KT 08/M01 A3029 RMK A01 T00801010  RH  053%=      5-min Rain = 0
KTAS 240147Z 06007KT 08/M01 A3029 RMK A01 T00801010  RH  053%=      5-min Rain = 0
KTAS 240148Z 06007KT 08/M01 A3029 RMK A01 T00801010  RH  053%=      5-min Rain = 0
KTAS 240149Z 06008KT 08/M01 A3029 RMK A01 T00801010  RH  053%=      5-min Rain = 0
KTAS 240150Z 06009KT 08/M01 A3029 RMK A01 T00801011  RH  053%=      5-min Rain = 0
KTAS 240151Z 06007KT 08/M01 A3029 RMK A01 T00801010  RH  053%=      5-min Rain = 0
KTAS 240152Z 05007KT 08/M01 A3029 RMK A01 T00801010  RH  053%=      5-min Rain = 0
KTAS 240153Z 05007KT 08/M01 A3029 RMK A01 T00801010  RH  053%=      5-min Rain = 0
KTAS 240154Z 05008KT 08/M01 A3029 RMK A01 T00801010  RH  053%=      5-min Rain = 0
KTAS 240155Z 05006KT 08/M01 A3029 RMK A01 T00801010  RH  053%=      5-min Rain = 0
KTAS 240156Z 05007KT 08/M01 A3029 RMK A01 T00801010  RH  053%=      5-min Rain = 0
KTAS 240157Z 06007KT 08/M01 A3029 RMK A01 T00801010  RH  053%=      5-min Rain = 0
KTAS 240158Z 06008KT 08/M01 A3029 RMK A01 T00801010  RH  053%=      5-min Rain = 0
KTAS 240159Z 06008KT 08/M01 A3029 RMK A01 T00801011  RH  053%=      5-min Rain = 0
KTAS 240200Z 06008KT 08/M01 A3029 RMK A01 T00801011  RH  053%=      5-min Rain = 0
KTAS 240201Z 05008KT 08/M01 A3029 RMK A01 T00791011  RH  053%=      5-min Rain = 0
KTAS 240202Z 05008KT 08/M01 A3029 RMK A01 T00791011  RH  053%=      5-min Rain = 0
KTAS 240203Z 04008KT 08/M01 A3029 RMK A01 T00791011  RH  053%=      5-min Rain = 0
KTAS 240204Z 05008KT 08/M01 A3029 RMK A01 T00801011  RH  053%=      5-min Rain = 0
KTAS 240205Z 05006KT 08/M01 A3029 RMK A01 T00801011  RH  053%=      5-min Rain = 0
KTAS 240206Z 05007KT 08/M01 A3029 RMK A01 T00801011  RH  053%=      5-min Rain = 0
KTAS 240207Z 06007KT 08/M01 A3029 RMK A01 T00801011  RH  053%=      5-min Rain = 0
KTAS 240208Z 06009KT 08/M01 A3029 RMK A01 T00801011  RH  053%=      5-min Rain = 0
KTAS 240209Z 06007KT 08/M01 A3029 RMK A01 T00801012  RH  053%=      5-min Rain = 0
KTAS 240210Z 05007KT 08/M01 A3029 RMK A01 T00791012  RH  053%=      5-min Rain = 0
KTAS 240211Z 05008KT 08/M01 A3029 RMK A01 T00801011  RH  053%=      5-min Rain = 0
KTAS 240212Z 06008KT 08/M01 A3029 RMK A01 T00801012  RH  053%=      5-min Rain = 0
KTAS 240213Z 06006KT 08/M01 A3029 RMK A01 T00801012  RH  053%=      5-min Rain = 0
KTAS 240214Z 06008KT 08/M01 A3029 RMK A01 T00801011  RH  053%=      5-min Rain = 0
KTAS 240215Z 06008KT 08/M01 A3029 RMK A01 T00791012  RH  052%=      5-min Rain = 0
KTAS 240216Z 05008KT 08/M01 A3029 RMK A01 T00791012  RH  053%=      5-min Rain = 0
KTAS 240217Z 06006KT 08/M01 A3029 RMK A01 T00791012  RH  053%=      5-min Rain = 0
KTAS 240218Z 06006KT 08/M01 A3029 RMK A01 T00791012  RH  053%=      5-min Rain = 0
KTAS 240219Z 06007KT 08/M01 A3029 RMK A01 T00791012  RH  053%=      5-min Rain = 0
KTAS 240220Z 05007KT 08/M01 A3029 RMK A01 T00791012  RH  053%=      5-min Rain = 0
KTAS 240221Z 05007KT 08/M01 A3029 RMK A01 T00801012  RH  053%=      5-min Rain = 0
KTAS 240222Z 05007KT 08/M01 A3029 RMK A01 T00801011  RH  053%=      5-min Rain = 0
KTAS 240223Z 06008KT 08/M01 A3029 RMK A01 T00791012  RH  052%=      5-min Rain = 0
KTAS 240224Z 06008KT 08/M01 A3029 RMK A01 T00791012  RH  053%=      5-min Rain = 0
KTAS 240225Z 05007KT 08/M01 A3029 RMK A01 T00791012  RH  053%=      5-min Rain = 0
KTAS 240226Z 06007KT 08/M01 A3029 RMK A01 T00791012  RH  053%=      5-min Rain = 0
KTAS 240227Z 06009KT 08/M01 A3029 RMK A01 T00791012  RH  053%=      5-min Rain = 0
KTAS 240228Z 05007KT 08/M01 A3029 RMK A01 T00791012  RH  053%=      5-min Rain = 0
KTAS 240229Z 05007KT 08/M01 A3029 RMK A01 T00791012  RH  053%=      5-min Rain = 0
KTAS 240230Z 05008KT 08/M01 A3029 RMK A01 T00791012  RH  052%=      5-min Rain = 0
KTAS 240231Z 05007KT 08/M01 A3029 RMK A01 T00791012  RH  052%=      5-min Rain = 0
KTAS 240232Z 05008KT 08/M01 A3029 RMK A01 T00791012  RH  052%=      5-min Rain = 0
KTAS 240233Z 05007KT 08/M01 A3029 RMK A01 T00791012  RH  052%=      5-min Rain = 0
KTAS 240234Z 05006KT 08/M01 A3029 RMK A01 T00791012  RH  053%=      5-min Rain = 0
KTAS 240235Z 05007KT 08/M01 A3029 RMK A01 T00791012  RH  053%=      5-min Rain = 0
KTAS 240236Z 06009KT 08/M01 A3029 RMK A01 T00791012  RH  053%=      5-min Rain = 0
KTAS 240237Z 07008KT 08/M01 A3029 RMK A01 T00791012  RH  052%=      5-min Rain = 0
KTAS 240238Z 06008KT 08/M01 A3029 RMK A01 T00791012  RH  053%=      5-min Rain = 0
KTAS 240239Z 06009KT 08/M01 A3029 RMK A01 T00791012  RH  053%=      5-min Rain = 0
KTAS 240240Z 06008KT 08/M01 A3029 RMK A01 T00791012  RH  053%=      5-min Rain = 0
KTAS 240241Z 06008KT 08/M01 A3029 RMK A01 T00791012  RH  053%=      5-min Rain = 0
KTAS 240242Z 06008KT 08/M01 A3029 RMK A01 T00791012  RH  053%=      5-min Rain = 0
KTAS 240243Z 06007KT 08/M01 A3029 RMK A01 T00791011  RH  053%=      5-min Rain = 0
KTAS 240244Z 06008KT 08/M01 A3029 RMK A01 T00791012  RH  053%=      5-min Rain = 0
KTAS 240245Z 05008KT 08/M01 A3029 RMK A01 T00791012  RH  053%=      5-min Rain = 0
KTAS 240246Z 05008KT 08/M01 A3029 RMK A01 T00791012  RH  053%=      5-min Rain = 0
KTAS 240247Z 05006KT 08/M01 A3029 RMK A01 T00791012  RH  053%=      5-min Rain = 0
KTAS 240248Z 06006KT 08/M01 A3029 RMK A01 T00791012  RH  053%=      5-min Rain = 0
KTAS 240249Z 06006KT 08/M01 A3029 RMK A01 T00791011  RH  053%=      5-min Rain = 0
KTAS 240250Z 06008KT 08/M01 A3029 RMK A01 T00791012  RH  053%=      5-min Rain = 0
KTAS 240251Z 06007KT 08/M01 A3029 RMK A01 T00791012  RH  053%=      5-min Rain = 0
KTAS 240252Z 06008KT 08/M01 A3029 RMK A01 T00791012  RH  053%=      5-min Rain = 0
KTAS 240253Z 06007KT 08/M01 A3029 RMK A01 T00791012  RH  053%=      5-min Rain = 0
KTAS 240254Z 06006KT 08/M01 A3029 RMK A01 T00791012  RH  053%=      5-min Rain = 0
KTAS 240255Z 06006KT 08/M01 A3029 RMK A01 T00791012  RH  053%=      5-min Rain = 0
KTAS 240256Z 06008KT 08/M01 A3029 RMK A01 T00791012  RH  053%=      5-min Rain = 0
KTAS 240257Z 06007KT 08/M01 A3029 RMK A01 T00791012  RH  053%=      5-min Rain = 0
KTAS 240258Z 06007KT 08/M01 A3029 RMK A01 T00791012  RH  053%=      5-min Rain = 0
KTAS 240259Z 06009KT 08/M01 A3029 RMK A01 T00791012  RH  053%=      5-min Rain = 0
KTAS 240300Z 06009KT 08/M01 A3029 RMK A01 T00791012  RH  053%=      5-min Rain = 0
KTAS 240301Z 06008KT 08/M01 A3029 RMK A01 T00791012  RH  053%=      5-min Rain = 0
KTAS 240302Z 06008KT 08/M01 A3029 RMK A01 T00781012  RH  053%=      5-min Rain = 0
KTAS 240303Z 05008KT 08/M01 A3029 RMK A01 T00781012  RH  053%=      5-min Rain = 0
KTAS 240304Z 05007KT 08/M01 A3029 RMK A01 T00781012  RH  053%=      5-min Rain = 0
KTAS 240305Z 06008KT 08/M01 A3029 RMK A01 T00781012  RH  053%=      5-min Rain = 0
KTAS 240306Z 06008KT 08/M01 A303 RMK A01 T00781012  RH  053%=      5-min Rain = 0
KTAS 240307Z 06007KT 08/M01 A303 RMK A01 T00781013  RH  053%=      5-min Rain = 0
KTAS 240308Z 06007KT 08/M01 A303 RMK A01 T00781012  RH  053%=      5-min Rain = 0
KTAS 240309Z 05007KT 08/M01 A303 RMK A01 T00781012  RH  053%=      5-min Rain = 0
KTAS 240310Z 06008KT 08/M01 A303 RMK A01 T00781012  RH  053%=      5-min Rain = 0
KTAS 240311Z 07008KT 08/M01 A303 RMK A01 T00781012  RH  053%=      5-min Rain = 0
KTAS 240312Z 06008KT 08/M01 A303 RMK A01 T00781012  RH  053%=      5-min Rain = 0
KTAS 240313Z 06007KT 08/M01 A303 RMK A01 T00781012  RH  053%=      5-min Rain = 0
KTAS 240314Z 06007KT 08/M01 A303 RMK A01 T00781013  RH  053%=      5-min Rain = 0
KTAS 240315Z 06008KT 08/M01 A303 RMK A01 T00781013  RH  053%=      5-min Rain = 0
KTAS 240316Z 06008KT 08/M01 A303 RMK A01 T00781012  RH  053%=      5-min Rain = 0
KTAS 240317Z 06007KT 08/M01 A303 RMK A01 T00781012  RH  053%=      5-min Rain = 0
KTAS 240318Z 06008KT 08/M01 A303 RMK A01 T00781012  RH  053%=      5-min Rain = 0
KTAS 240319Z 06007KT 08/M01 A303 RMK A01 T00781012  RH  053%=      5-min Rain = 0
KTAS 240320Z 06008KT 08/M01 A303 RMK A01 T00781012  RH  053%=      5-min Rain = 0
KTAS 240321Z 06007KT 08/M01 A303 RMK A01 T00781012  RH  053%=      5-min Rain = 0
KTAS 240322Z 06008KT 08/M01 A303 RMK A01 T00781012  RH  053%=      5-min Rain = 0
KTAS 240323Z 05006KT 08/M01 A303 RMK A01 T00781012  RH  053%=      5-min Rain = 0
KTAS 240324Z 05008KT 08/M01 A303 RMK A01 T00781012  RH  053%=      5-min Rain = 0
KTAS 240325Z 05007KT 08/M01 A303 RMK A01 T00781012  RH  053%=      5-min Rain = 0
KTAS 240326Z 05008KT 08/M01 A303 RMK A01 T00781012  RH  053%=      5-min Rain = 0
KTAS 240327Z 05007KT 08/M01 A303 RMK A01 T00781013  RH  053%=      5-min Rain = 0
KTAS 240328Z 05008KT 08/M01 A303 RMK A01 T00781012  RH  053%=      5-min Rain = 0
KTAS 240329Z 05007KT 08/M01 A303 RMK A01 T00781013  RH  053%=      5-min Rain = 0
KTAS 240330Z 05006KT 08/M01 A303 RMK A01 T00781012  RH  053%=      5-min Rain = 0
KTAS 240331Z 04006KT 08/M01 A303 RMK A01 T00781012  RH  053%=      5-min Rain = 0
KTAS 240332Z 05007KT 08/M01 A303 RMK A01 T00781013  RH  053%=      5-min Rain = 0
KTAS 240333Z 04006KT 08/M01 A3029 RMK A01 T00781013  RH  053%=      5-min Rain = 0
KTAS 240334Z 05007KT 08/M01 A3029 RMK A01 T00781013  RH  053%=      5-min Rain = 0
KTAS 240335Z 05007KT 08/M01 A3029 RMK A01 T00781013  RH  053%=      5-min Rain = 0
KTAS 240336Z 04007KT 08/M01 A3029 RMK A01 T00781012  RH  053%=      5-min Rain = 0
KTAS 240337Z 04008KT 08/M01 A3029 RMK A01 T00781013  RH  053%=      5-min Rain = 0
KTAS 240338Z 04008KT 08/M01 A303 RMK A01 T00781013  RH  053%=      5-min Rain = 0
KTAS 240339Z 05008KT 08/M01 A303 RMK A01 T00781013  RH  053%=      5-min Rain = 0
KTAS 240340Z 06008KT 08/M01 A303 RMK A01 T00771013  RH  053%=      5-min Rain = 0
KTAS 240341Z 06007KT 08/M01 A303 RMK A01 T00771013  RH  053%=      5-min Rain = 0
KTAS 240342Z 05007KT 08/M01 A303 RMK A01 T00771013  RH  053%=      5-min Rain = 0
KTAS 240343Z 05008KT 08/M01 A303 RMK A01 T00771013  RH  053%=      5-min Rain = 0
KTAS 240344Z 06007KT 08/M01 A303 RMK A01 T00771013  RH  053%=      5-min Rain = 0
KTAS 240345Z 06008KT 08/M01 A303 RMK A01 T00771013  RH  053%=      5-min Rain = 0
KTAS 240346Z 05008KT 08/M01 A303 RMK A01 T00771013  RH  053%=      5-min Rain = 0
KTAS 240347Z 05007KT 08/M01 A303 RMK A01 T00771013  RH  053%=      5-min Rain = 0
KTAS 240348Z 05006KT 08/M01 A303 RMK A01 T00771013  RH  053%=      5-min Rain = 0
KTAS 240349Z 05009KT 08/M01 A303 RMK A01 T00781013  RH  053%=      5-min Rain = 0
KTAS 240350Z 05008KT 08/M01 A303 RMK A01 T00771014  RH  053%=      5-min Rain = 0
KTAS 240351Z 05007KT 08/M01 A303 RMK A01 T00771013  RH  053%=      5-min Rain = 0
KTAS 240352Z 04007KT 08/M01 A303 RMK A01 T00771013  RH  053%=      5-min Rain = 0
KTAS 240353Z 05006KT 08/M01 A303 RMK A01 T00771013  RH  053%=      5-min Rain = 0
KTAS 240354Z 05006KT 08/M01 A303 RMK A01 T00781013  RH  053%=      5-min Rain = 0
KTAS 240355Z 06008KT 08/M01 A303 RMK A01 T00771013  RH  053%=      5-min Rain = 0
KTAS 240356Z 06007KT 08/M01 A303 RMK A01 T00771013  RH  053%=      5-min Rain = 0
KTAS 240357Z 07007KT 08/M01 A303 RMK A01 T00771013  RH  053%=      5-min Rain = 0
KTAS 240358Z 06009KT 08/M01 A303 RMK A01 T00771014  RH  053%=      5-min Rain = 0
KTAS 240359Z 07007KT 08/M01 A303 RMK A01 T00771014  RH  053%=      5-min Rain = 0
KTAS 240400Z 06006KT 08/M01 A303 RMK A01 T00771014  RH  053%=      5-min Rain = 0
KTAS 240401Z 06007KT 08/M01 A303 RMK A01 T00771013  RH  053%=      5-min Rain = 0
KTAS 240402Z 06007KT 08/M01 A303 RMK A01 T00771014  RH  053%=      5-min Rain = 0
KTAS 240403Z 06008KT 08/M01 A303 RMK A01 T00771014  RH  053%=      5-min Rain = 0
KTAS 240404Z 05008KT 08/M01 A303 RMK A01 T00771014  RH  053%=      5-min Rain = 0
KTAS 240405Z 06006KT 08/M01 A303 RMK A01 T00771014  RH  053%=      5-min Rain = 0
KTAS 240406Z 07007KT 08/M01 A303 RMK A01 T00771013  RH  053%=      5-min Rain = 0
KTAS 240407Z 06008KT 08/M01 A303 RMK A01 T00771013  RH  053%=      5-min Rain = 0
KTAS 240408Z 06007KT 08/M01 A303 RMK A01 T00771013  RH  053%=      5-min Rain = 0
KTAS 240409Z 06006KT 08/M01 A303 RMK A01 T00771013  RH  053%=      5-min Rain = 0
KTAS 240410Z 05006KT 08/M01 A303 RMK A01 T00771013  RH  053%=      5-min Rain = 0
KTAS 240411Z 05006KT 08/M01 A303 RMK A01 T00771013  RH  053%=      5-min Rain = 0
KTAS 240412Z 06006KT 08/M01 A303 RMK A01 T00771013  RH  053%=      5-min Rain = 0
KTAS 240413Z 06005KT 08/M01 A303 RMK A01 T00771013  RH  053%=      5-min Rain = 0
KTAS 240414Z 06005KT 08/M01 A303 RMK A01 T00771013  RH  053%=      5-min Rain = 0
KTAS 240415Z 06007KT 08/M01 A303 RMK A01 T00771013  RH  053%=      5-min Rain = 0
KTAS 240416Z 06007KT 08/M01 A303 RMK A01 T00771014  RH  053%=      5-min Rain = 0
KTAS 240417Z 06007KT 08/M01 A303 RMK A01 T00771014  RH  053%=      5-min Rain = 0
KTAS 240418Z 06006KT 08/M01 A303 RMK A01 T00771014  RH  053%=      5-min Rain = 0
KTAS 240419Z 06006KT 08/M01 A303 RMK A01 T00771013  RH  053%=      5-min Rain = 0
KTAS 240420Z 06004KT 08/M01 A303 RMK A01 T00771013  RH  053%=      5-min Rain = 0
KTAS 240421Z 05004KT 08/M01 A303 RMK A01 T00771013  RH  053%=      5-min Rain = 0
KTAS 240422Z 05005KT 08/M01 A303 RMK A01 T00771013  RH  053%=      5-min Rain = 0
KTAS 240423Z 06005KT 08/M01 A303 RMK A01 T00771013  RH  053%=      5-min Rain = 0
KTAS 240424Z 05005KT 08/M01 A303 RMK A01 T00771013  RH  053%=      5-min Rain = 0
KTAS 240425Z 06007KT 08/M01 A303 RMK A01 T00771013  RH  053%=      5-min Rain = 0
KTAS 240426Z 06006KT 08/M01 A303 RMK A01 T00771014  RH  053%=      5-min Rain = 0
KTAS 240427Z 06006KT 08/M01 A303 RMK A01 T00771013  RH  053%=      5-min Rain = 0
KTAS 240428Z 07006KT 08/M01 A303 RMK A01 T00771013  RH  053%=      5-min Rain = 0
KTAS 240429Z 07006KT 08/M01 A303 RMK A01 T00771013  RH  053%=      5-min Rain = 0
KTAS 240430Z 07005KT 08/M01 A303 RMK A01 T00761013  RH  053%=      5-min Rain = 0
KTAS 240431Z 04004KT 08/M01 A303 RMK A01 T00761013  RH  053%=      5-min Rain = 0
KTAS 240432Z 05005KT 08/M01 A303 RMK A01 T00761013  RH  053%=      5-min Rain = 0
KTAS 240433Z 06005KT 08/M01 A303 RMK A01 T00771013  RH  053%=      5-min Rain = 0
KTAS 240434Z 06006KT 08/M01 A303 RMK A01 T00771013  RH  053%=      5-min Rain = 0
KTAS 240435Z 06005KT 08/M01 A303 RMK A01 T00761014  RH  053%=      5-min Rain = 0
KTAS 240436Z 06006KT 08/M01 A303 RMK A01 T00761014  RH  053%=      5-min Rain = 0
KTAS 240437Z 06005KT 08/M01 A303 RMK A01 T00761014  RH  053%=      5-min Rain = 0
KTAS 240438Z 06004KT 08/M01 A303 RMK A01 T00761014  RH  053%=      5-min Rain = 0
KTAS 240439Z 05005KT 08/M01 A303 RMK A01 T00761014  RH  053%=      5-min Rain = 0
KTAS 240440Z 06005KT 08/M01 A303 RMK A01 T00761013  RH  053%=      5-min Rain = 0
KTAS 240441Z 06004KT 08/M01 A303 RMK A01 T00761014  RH  053%=      5-min Rain = 0
KTAS 240442Z 07006KT 08/M01 A303 RMK A01 T00761014  RH  053%=      5-min Rain = 0
KTAS 240443Z 07007KT 08/M01 A3029 RMK A01 T00761014  RH  053%=      5-min Rain = 0
KTAS 240444Z 07007KT 08/M01 A3029 RMK A01 T00751014  RH  053%=      5-min Rain = 0
KTAS 240445Z 07007KT 08/M01 A3029 RMK A01 T00751014  RH  053%=      5-min Rain = 0
KTAS 240446Z 07008KT 08/M01 A3029 RMK A01 T00751014  RH  053%=      5-min Rain = 0
KTAS 240447Z 06008KT 08/M01 A3029 RMK A01 T00751014  RH  053%=      5-min Rain = 0
KTAS 240448Z 06007KT 08/M01 A3029 RMK A01 T00751014  RH  053%=      5-min Rain = 0
KTAS 240449Z 06008KT 08/M01 A3029 RMK A01 T00751014  RH  053%=      5-min Rain = 0
KTAS 240450Z 06007KT 08/M02 A3029 RMK A01 T00751015  RH  053%=      5-min Rain = 0
KTAS 240451Z 06006KT 08/M02 A3029 RMK A01 T00751015  RH  053%=      5-min Rain = 0
KTAS 240452Z 06006KT 08/M02 A3029 RMK A01 T00751015  RH  053%=      5-min Rain = 0
KTAS 240453Z 06006KT 08/M02 A3029 RMK A01 T00751015  RH  053%=      5-min Rain = 0
KTAS 240454Z 05006KT 08/M02 A3029 RMK A01 T00751015  RH  053%=      5-min Rain = 0
KTAS 240455Z 06006KT 08/M02 A3029 RMK A01 T00751015  RH  053%=      5-min Rain = 0
KTAS 240456Z 06007KT 08/M02 A3029 RMK A01 T00751015  RH  053%=      5-min Rain = 0
KTAS 240457Z 06007KT 08/M02 A3029 RMK A01 T00751015  RH  053%=      5-min Rain = 0
KTAS 240458Z 06007KT 08/M02 A3029 RMK A01 T00751015  RH  053%=      5-min Rain = 0
KTAS 240459Z 07008KT 08/M02 A3029 RMK A01 T00751015  RH  053%=      5-min Rain = 0

Page generated in 0.0709 seconds.